<?xml version="1.0" encoding="UTF-8" standalone="no" ?>
<gpx xmlns="http://www.topografix.com/GPX/1/1" xmlns:xsi="http://www.w3.org/2001/XMLSchema-instance" xsi:schemaLocation="http://www.topografix.com/GPX/1/1 http://www.topografix.com/GPX/1/1/gpx.xsd" version="1.1" creator="VisuGPX - https://www.visugpx.com">
  <metadata>
    <name>STEVENSON 12 : Pont-de-Montvert -</name>
  </metadata>
  <trk>
    <name><![CDATA[STEVENSON 12 : Pont-de-Montvert -]]></name>
    <trkseg>
      <trkpt lat="44.36313" lon="3.7435">
        <ele>865.58508992581</ele>
        <time>2021-03-31T09:38:41.000Z</time>
      </trkpt>
      <trkpt lat="44.36294" lon="3.74344">
        <ele>867.06600663782</ele>
        <time>2021-03-31T09:38:41.006Z</time>
      </trkpt>
      <trkpt lat="44.36284" lon="3.74339">
        <ele>869.07000357874</ele>
        <time>2021-03-31T09:38:41.016Z</time>
      </trkpt>
      <trkpt lat="44.36276" lon="3.74361">
        <ele>871.16651262123</ele>
        <time>2021-03-31T09:38:41.032Z</time>
      </trkpt>
      <trkpt lat="44.36261" lon="3.74342">
        <ele>874.1395212851</ele>
        <time>2021-03-31T09:38:41.055Z</time>
      </trkpt>
      <trkpt lat="44.36261" lon="3.74342">
        <ele>877.0985455497</ele>
        <time>2021-03-31T09:38:41.078Z</time>
      </trkpt>
      <trkpt lat="44.36252" lon="3.74333">
        <ele>880.60992975653</ele>
        <time>2021-03-31T09:38:41.104Z</time>
      </trkpt>
      <trkpt lat="44.36232" lon="3.74354">
        <ele>884.58103198162</ele>
        <time>2021-03-31T09:38:41.139Z</time>
      </trkpt>
      <trkpt lat="44.36227" lon="3.74342">
        <ele>888.91257818731</ele>
        <time>2021-03-31T09:38:41.177Z</time>
      </trkpt>
      <trkpt lat="44.36242" lon="3.7428">
        <ele>894.47870716314</ele>
        <time>2021-03-31T09:38:41.231Z</time>
      </trkpt>
      <trkpt lat="44.36168" lon="3.74368">
        <ele>900.0475474279</ele>
        <time>2021-03-31T09:38:41.317Z</time>
      </trkpt>
      <trkpt lat="44.36136" lon="3.74378">
        <ele>906.63772316068</ele>
        <time>2021-03-31T09:38:41.414Z</time>
      </trkpt>
      <trkpt lat="44.36085" lon="3.74381">
        <ele>913.17166135364</ele>
        <time>2021-03-31T09:38:41.528Z</time>
      </trkpt>
      <trkpt lat="44.36069" lon="3.74363">
        <ele>919.76093944433</ele>
        <time>2021-03-31T09:38:41.649Z</time>
      </trkpt>
      <trkpt lat="44.3609" lon="3.74361">
        <ele>925.86840578299</ele>
        <time>2021-03-31T09:38:41.777Z</time>
      </trkpt>
      <trkpt lat="44.36101" lon="3.74341">
        <ele>932.26526005387</ele>
        <time>2021-03-31T09:38:41.911Z</time>
      </trkpt>
      <trkpt lat="44.36087" lon="3.74323">
        <ele>938.74500223006</ele>
        <time>2021-03-31T09:38:42.051Z</time>
      </trkpt>
      <trkpt lat="44.36105" lon="3.74299">
        <ele>945.10224825037</ele>
        <time>2021-03-31T09:38:42.200Z</time>
      </trkpt>
      <trkpt lat="44.36085" lon="3.74294">
        <ele>951.4444893663</ele>
        <time>2021-03-31T09:38:42.356Z</time>
      </trkpt>
      <trkpt lat="44.36108" lon="3.74263">
        <ele>957.76345229498</ele>
        <time>2021-03-31T09:38:42.522Z</time>
      </trkpt>
      <trkpt lat="44.36152" lon="3.74147">
        <ele>966.13165555489</ele>
        <time>2021-03-31T09:38:42.719Z</time>
      </trkpt>
      <trkpt lat="44.36177" lon="3.74101">
        <ele>973.18031492547</ele>
        <time>2021-03-31T09:38:42.930Z</time>
      </trkpt>
      <trkpt lat="44.36173" lon="3.74097">
        <ele>979.86147458034</ele>
        <time>2021-03-31T09:38:43.143Z</time>
      </trkpt>
      <trkpt lat="44.36157" lon="3.7411">
        <ele>986.48613334405</ele>
        <time>2021-03-31T09:38:43.362Z</time>
      </trkpt>
      <trkpt lat="44.36051" lon="3.74149">
        <ele>994.35187835404</ele>
        <time>2021-03-31T09:38:43.618Z</time>
      </trkpt>
      <trkpt lat="44.36025" lon="3.74147">
        <ele>1001.2194535431</ele>
        <time>2021-03-31T09:38:43.882Z</time>
      </trkpt>
      <trkpt lat="44.35994" lon="3.74139">
        <ele>1008.083958741</ele>
        <time>2021-03-31T09:38:44.157Z</time>
      </trkpt>
      <trkpt lat="44.35994" lon="3.74139">
        <ele>1020.406663061</ele>
        <time>2021-03-31T09:38:44.432Z</time>
      </trkpt>
      <trkpt lat="44.35994" lon="3.74139">
        <ele>1026.2329993471</ele>
        <time>2021-03-31T09:38:44.707Z</time>
      </trkpt>
      <trkpt lat="44.35953" lon="3.74128">
        <ele>1032.4161155809</ele>
        <time>2021-03-31T09:38:44.996Z</time>
      </trkpt>
      <trkpt lat="44.35925" lon="3.74104">
        <ele>1038.7267846321</ele>
        <time>2021-03-31T09:38:45.296Z</time>
      </trkpt>
      <trkpt lat="44.35842" lon="3.74052">
        <ele>1046.2079979753</ele>
        <time>2021-03-31T09:38:45.626Z</time>
      </trkpt>
      <trkpt lat="44.35842" lon="3.74052">
        <ele>1052.1317438198</ele>
        <time>2021-03-31T09:38:45.956Z</time>
      </trkpt>
      <trkpt lat="44.35808" lon="3.74029">
        <ele>1058.2778939896</ele>
        <time>2021-03-31T09:38:46.299Z</time>
      </trkpt>
      <trkpt lat="44.35774" lon="3.74031">
        <ele>1064.2567894056</ele>
        <time>2021-03-31T09:38:46.653Z</time>
      </trkpt>
      <trkpt lat="44.35743" lon="3.74051">
        <ele>1069.491946686</ele>
        <time>2021-03-31T09:38:47.019Z</time>
      </trkpt>
      <trkpt lat="44.35683" lon="3.74057">
        <ele>1075.6576937608</ele>
        <time>2021-03-31T09:38:47.405Z</time>
      </trkpt>
      <trkpt lat="44.35705" lon="3.74034">
        <ele>1080.7552596167</ele>
        <time>2021-03-31T09:38:47.800Z</time>
      </trkpt>
      <trkpt lat="44.35596" lon="3.74048">
        <ele>1086.6633179616</ele>
        <time>2021-03-31T09:38:48.232Z</time>
      </trkpt>
      <trkpt lat="44.35571" lon="3.74058">
        <ele>1091.2106959932</ele>
        <time>2021-03-31T09:38:48.672Z</time>
      </trkpt>
      <trkpt lat="44.3552" lon="3.74059">
        <ele>1095.3714998458</ele>
        <time>2021-03-31T09:38:49.129Z</time>
      </trkpt>
      <trkpt lat="44.35494" lon="3.74046">
        <ele>1099.2236935976</ele>
        <time>2021-03-31T09:38:49.595Z</time>
      </trkpt>
      <trkpt lat="44.35391" lon="3.74036">
        <ele>1102.5552175205</ele>
        <time>2021-03-31T09:38:50.096Z</time>
      </trkpt>
      <trkpt lat="44.35294" lon="3.73983">
        <ele>1105.0892853075</ele>
        <time>2021-03-31T09:38:50.632Z</time>
      </trkpt>
      <trkpt lat="44.35236" lon="3.73934">
        <ele>1107.4923033706</ele>
        <time>2021-03-31T09:38:51.190Z</time>
      </trkpt>
      <trkpt lat="44.35217" lon="3.73932">
        <ele>1109.6160349158</ele>
        <time>2021-03-31T09:38:51.755Z</time>
      </trkpt>
      <trkpt lat="44.35141" lon="3.73871">
        <ele>1111.6664220642</ele>
        <time>2021-03-31T09:38:52.349Z</time>
      </trkpt>
      <trkpt lat="44.35074" lon="3.73803">
        <ele>1112.911157914</ele>
        <time>2021-03-31T09:38:52.970Z</time>
      </trkpt>
      <trkpt lat="44.35019" lon="3.73762">
        <ele>1113.8658825922</ele>
        <time>2021-03-31T09:38:53.612Z</time>
      </trkpt>
      <trkpt lat="44.34944" lon="3.73722">
        <ele>1114.5671882801</ele>
        <time>2021-03-31T09:38:54.281Z</time>
      </trkpt>
      <trkpt lat="44.34926" lon="3.73722">
        <ele>1115.1381581327</ele>
        <time>2021-03-31T09:38:54.956Z</time>
      </trkpt>
      <trkpt lat="44.34858" lon="3.73682">
        <ele>1115.6028654937</ele>
        <time>2021-03-31T09:38:55.656Z</time>
      </trkpt>
      <trkpt lat="44.34838" lon="3.73682">
        <ele>1115.7656544922</ele>
        <time>2021-03-31T09:38:56.362Z</time>
      </trkpt>
      <trkpt lat="44.34838" lon="3.73682">
        <ele>1115.8147477869</ele>
        <time>2021-03-31T09:38:57.068Z</time>
      </trkpt>
      <trkpt lat="44.3479" lon="3.73685">
        <ele>1115.7180067056</ele>
        <time>2021-03-31T09:38:57.790Z</time>
      </trkpt>
      <trkpt lat="44.34717" lon="3.73677">
        <ele>1115.5935502761</ele>
        <time>2021-03-31T09:38:58.537Z</time>
      </trkpt>
      <trkpt lat="44.3466" lon="3.73743">
        <ele>1115.1194705762</ele>
        <time>2021-03-31T09:38:59.308Z</time>
      </trkpt>
      <trkpt lat="44.34617" lon="3.7377">
        <ele>1114.6912792513</ele>
        <time>2021-03-31T09:39:00.095Z</time>
      </trkpt>
      <trkpt lat="44.34617" lon="3.7377">
        <ele>1113.4747682058</ele>
        <time>2021-03-31T09:39:00.882Z</time>
      </trkpt>
      <trkpt lat="44.34617" lon="3.7377">
        <ele>1112.6990272349</ele>
        <time>2021-03-31T09:39:01.669Z</time>
      </trkpt>
      <trkpt lat="44.34615" lon="3.73771">
        <ele>1111.7959970013</ele>
        <time>2021-03-31T09:39:02.457Z</time>
      </trkpt>
      <trkpt lat="44.34583" lon="3.7377">
        <ele>1110.6386888542</ele>
        <time>2021-03-31T09:39:03.256Z</time>
      </trkpt>
      <trkpt lat="44.34556" lon="3.73751">
        <ele>1109.482980155</ele>
        <time>2021-03-31T09:39:04.065Z</time>
      </trkpt>
      <trkpt lat="44.3452" lon="3.73747">
        <ele>1108.3528254077</ele>
        <time>2021-03-31T09:39:04.886Z</time>
      </trkpt>
      <trkpt lat="44.34475" lon="3.73756">
        <ele>1107.0388712098</ele>
        <time>2021-03-31T09:39:05.722Z</time>
      </trkpt>
      <trkpt lat="44.34412" lon="3.73785">
        <ele>1105.3509359383</ele>
        <time>2021-03-31T09:39:06.580Z</time>
      </trkpt>
      <trkpt lat="44.34337" lon="3.73789">
        <ele>1103.412220163</ele>
        <time>2021-03-31T09:39:07.463Z</time>
      </trkpt>
      <trkpt lat="44.343" lon="3.73778">
        <ele>1101.1900787706</ele>
        <time>2021-03-31T09:39:08.359Z</time>
      </trkpt>
      <trkpt lat="44.34275" lon="3.73781">
        <ele>1098.8624297858</ele>
        <time>2021-03-31T09:39:09.263Z</time>
      </trkpt>
      <trkpt lat="44.34242" lon="3.73739">
        <ele>1096.0114266676</ele>
        <time>2021-03-31T09:39:10.182Z</time>
      </trkpt>
      <trkpt lat="44.34199" lon="3.7378">
        <ele>1093.3038627091</ele>
        <time>2021-03-31T09:39:11.118Z</time>
      </trkpt>
      <trkpt lat="44.34196" lon="3.73848">
        <ele>1090.1411392382</ele>
        <time>2021-03-31T09:39:12.071Z</time>
      </trkpt>
      <trkpt lat="44.34183" lon="3.73893">
        <ele>1086.8176659434</ele>
        <time>2021-03-31T09:39:13.035Z</time>
      </trkpt>
      <trkpt lat="44.34147" lon="3.73972">
        <ele>1082.9897297469</ele>
        <time>2021-03-31T09:39:14.021Z</time>
      </trkpt>
      <trkpt lat="44.34093" lon="3.7404">
        <ele>1078.8702588464</ele>
        <time>2021-03-31T09:39:15.032Z</time>
      </trkpt>
      <trkpt lat="44.34056" lon="3.74119">
        <ele>1074.7007628763</ele>
        <time>2021-03-31T09:39:16.065Z</time>
      </trkpt>
      <trkpt lat="44.3405" lon="3.74138">
        <ele>1070.6402787665</ele>
        <time>2021-03-31T09:39:17.103Z</time>
      </trkpt>
      <trkpt lat="44.34044" lon="3.74233">
        <ele>1066.3223278339</ele>
        <time>2021-03-31T09:39:18.164Z</time>
      </trkpt>
      <trkpt lat="44.3404" lon="3.74234">
        <ele>1062.0677786962</ele>
        <time>2021-03-31T09:39:19.227Z</time>
      </trkpt>
      <trkpt lat="44.34025" lon="3.74194">
        <ele>1057.670159859</ele>
        <time>2021-03-31T09:39:20.300Z</time>
      </trkpt>
      <trkpt lat="44.34012" lon="3.74177">
        <ele>1053.2645154833</ele>
        <time>2021-03-31T09:39:21.379Z</time>
      </trkpt>
      <trkpt lat="44.3399" lon="3.74177">
        <ele>1048.6538565503</ele>
        <time>2021-03-31T09:39:22.466Z</time>
      </trkpt>
      <trkpt lat="44.33964" lon="3.7414">
        <ele>1044.2008837566</ele>
        <time>2021-03-31T09:39:23.565Z</time>
      </trkpt>
      <trkpt lat="44.33957" lon="3.74139">
        <ele>1039.8503916136</ele>
        <time>2021-03-31T09:39:24.667Z</time>
      </trkpt>
      <trkpt lat="44.33936" lon="3.74185">
        <ele>1035.3005168976</ele>
        <time>2021-03-31T09:39:25.781Z</time>
      </trkpt>
      <trkpt lat="44.33926" lon="3.74248">
        <ele>1030.4815243174</ele>
        <time>2021-03-31T09:39:26.911Z</time>
      </trkpt>
      <trkpt lat="44.33911" lon="3.74275">
        <ele>1025.8977010842</ele>
        <time>2021-03-31T09:39:28.049Z</time>
      </trkpt>
      <trkpt lat="44.33889" lon="3.74297">
        <ele>1021.5819980466</ele>
        <time>2021-03-31T09:39:29.196Z</time>
      </trkpt>
      <trkpt lat="44.33814" lon="3.74321">
        <ele>1017.5732099496</ele>
        <time>2021-03-31T09:39:30.369Z</time>
      </trkpt>
      <trkpt lat="44.3381" lon="3.74362">
        <ele>1013.2779723894</ele>
        <time>2021-03-31T09:39:31.552Z</time>
      </trkpt>
      <trkpt lat="44.33796" lon="3.74414">
        <ele>1009.4097224629</ele>
        <time>2021-03-31T09:39:32.748Z</time>
      </trkpt>
      <trkpt lat="44.33796" lon="3.74414">
        <ele>1003.2121435472</ele>
        <time>2021-03-31T09:39:33.944Z</time>
      </trkpt>
      <trkpt lat="44.33796" lon="3.74414">
        <ele>1000.5756363861</ele>
        <time>2021-03-31T09:39:35.140Z</time>
      </trkpt>
      <trkpt lat="44.33796" lon="3.74416">
        <ele>998.26014190702</ele>
        <time>2021-03-31T09:39:36.337Z</time>
      </trkpt>
      <trkpt lat="44.33769" lon="3.74463">
        <ele>996.27514763731</ele>
        <time>2021-03-31T09:39:37.548Z</time>
      </trkpt>
      <trkpt lat="44.33785" lon="3.74467">
        <ele>994.60719205894</ele>
        <time>2021-03-31T09:39:38.765Z</time>
      </trkpt>
      <trkpt lat="44.33785" lon="3.74467">
        <ele>993.36861399202</ele>
        <time>2021-03-31T09:39:39.982Z</time>
      </trkpt>
      <trkpt lat="44.33923" lon="3.7442">
        <ele>992.25795356974</ele>
        <time>2021-03-31T09:39:41.246Z</time>
      </trkpt>
      <trkpt lat="44.33938" lon="3.74429">
        <ele>991.82366787439</ele>
        <time>2021-03-31T09:39:42.515Z</time>
      </trkpt>
      <trkpt lat="44.3395" lon="3.74451">
        <ele>991.82223415595</ele>
        <time>2021-03-31T09:39:43.791Z</time>
      </trkpt>
      <trkpt lat="44.33955" lon="3.74483">
        <ele>992.161689781</ele>
        <time>2021-03-31T09:39:45.075Z</time>
      </trkpt>
      <trkpt lat="44.33953" lon="3.74549">
        <ele>992.64474134148</ele>
        <time>2021-03-31T09:39:46.375Z</time>
      </trkpt>
      <trkpt lat="44.33931" lon="3.74651">
        <ele>993.79439570093</ele>
        <time>2021-03-31T09:39:47.700Z</time>
      </trkpt>
      <trkpt lat="44.33938" lon="3.74717">
        <ele>995.04515140052</ele>
        <time>2021-03-31T09:39:49.041Z</time>
      </trkpt>
      <trkpt lat="44.33928" lon="3.74769">
        <ele>997.17283202946</ele>
        <time>2021-03-31T09:39:50.395Z</time>
      </trkpt>
      <trkpt lat="44.33915" lon="3.74892">
        <ele>999.92249756506</ele>
        <time>2021-03-31T09:39:51.779Z</time>
      </trkpt>
      <trkpt lat="44.33899" lon="3.7493">
        <ele>1003.1019475269</ele>
        <time>2021-03-31T09:39:53.173Z</time>
      </trkpt>
      <trkpt lat="44.33856" lon="3.74959">
        <ele>1006.8165241472</ele>
        <time>2021-03-31T09:39:54.583Z</time>
      </trkpt>
      <trkpt lat="44.33831" lon="3.7496">
        <ele>1010.7343762687</ele>
        <time>2021-03-31T09:39:56.002Z</time>
      </trkpt>
      <trkpt lat="44.33805" lon="3.74947">
        <ele>1014.9914865681</ele>
        <time>2021-03-31T09:39:57.430Z</time>
      </trkpt>
      <trkpt lat="44.33776" lon="3.74969">
        <ele>1019.3431988586</ele>
        <time>2021-03-31T09:39:58.869Z</time>
      </trkpt>
      <trkpt lat="44.33722" lon="3.74985">
        <ele>1024.4558393288</ele>
        <time>2021-03-31T09:40:00.326Z</time>
      </trkpt>
      <trkpt lat="44.33722" lon="3.74985">
        <ele>1034.2607187336</ele>
        <time>2021-03-31T09:40:01.783Z</time>
      </trkpt>
      <trkpt lat="44.33722" lon="3.74985">
        <ele>1039.460926447</ele>
        <time>2021-03-31T09:40:03.240Z</time>
      </trkpt>
      <trkpt lat="44.33676" lon="3.75">
        <ele>1045.2926200631</ele>
        <time>2021-03-31T09:40:04.713Z</time>
      </trkpt>
      <trkpt lat="44.33484" lon="3.75138">
        <ele>1052.6062570141</ele>
        <time>2021-03-31T09:40:06.258Z</time>
      </trkpt>
      <trkpt lat="44.33484" lon="3.75138">
        <ele>1058.2387666855</ele>
        <time>2021-03-31T09:40:07.803Z</time>
      </trkpt>
      <trkpt lat="44.33443" lon="3.75167">
        <ele>1064.0017691162</ele>
        <time>2021-03-31T09:40:09.363Z</time>
      </trkpt>
      <trkpt lat="44.33319" lon="3.75311">
        <ele>1070.0592009914</ele>
        <time>2021-03-31T09:40:10.977Z</time>
      </trkpt>
      <trkpt lat="44.33295" lon="3.7533">
        <ele>1075.7781216075</ele>
        <time>2021-03-31T09:40:12.600Z</time>
      </trkpt>
      <trkpt lat="44.33219" lon="3.75356">
        <ele>1081.6368756741</ele>
        <time>2021-03-31T09:40:14.249Z</time>
      </trkpt>
      <trkpt lat="44.33197" lon="3.75372">
        <ele>1087.5160597261</ele>
        <time>2021-03-31T09:40:15.907Z</time>
      </trkpt>
      <trkpt lat="44.33171" lon="3.75374">
        <ele>1093.336431529</ele>
        <time>2021-03-31T09:40:17.573Z</time>
      </trkpt>
      <trkpt lat="44.33144" lon="3.75397">
        <ele>1099.1634310377</ele>
        <time>2021-03-31T09:40:19.250Z</time>
      </trkpt>
      <trkpt lat="44.33089" lon="3.75434">
        <ele>1105.6545079017</ele>
        <time>2021-03-31T09:40:20.947Z</time>
      </trkpt>
      <trkpt lat="44.33015" lon="3.75425">
        <ele>1112.0098318949</ele>
        <time>2021-03-31T09:40:22.669Z</time>
      </trkpt>
      <trkpt lat="44.3295" lon="3.75383">
        <ele>1118.1832184779</ele>
        <time>2021-03-31T09:40:24.415Z</time>
      </trkpt>
      <trkpt lat="44.32949" lon="3.75381">
        <ele>1123.5705630989</ele>
        <time>2021-03-31T09:40:26.161Z</time>
      </trkpt>
      <trkpt lat="44.32949" lon="3.7538">
        <ele>1134.0112492218</ele>
        <time>2021-03-31T09:40:27.907Z</time>
      </trkpt>
      <trkpt lat="44.32949" lon="3.7538">
        <ele>1139.1101821888</ele>
        <time>2021-03-31T09:40:29.653Z</time>
      </trkpt>
      <trkpt lat="44.32915" lon="3.75296">
        <ele>1144.7369739702</ele>
        <time>2021-03-31T09:40:31.423Z</time>
      </trkpt>
      <trkpt lat="44.32873" lon="3.75247">
        <ele>1149.5969556078</ele>
        <time>2021-03-31T09:40:33.211Z</time>
      </trkpt>
      <trkpt lat="44.32848" lon="3.75235">
        <ele>1154.487869388</ele>
        <time>2021-03-31T09:40:35.008Z</time>
      </trkpt>
      <trkpt lat="44.32772" lon="3.75227">
        <ele>1159.7193659098</ele>
        <time>2021-03-31T09:40:36.830Z</time>
      </trkpt>
      <trkpt lat="44.3273" lon="3.75209">
        <ele>1165.0205128126</ele>
        <time>2021-03-31T09:40:38.667Z</time>
      </trkpt>
      <trkpt lat="44.32668" lon="3.75074">
        <ele>1170.2947123623</ele>
        <time>2021-03-31T09:40:40.542Z</time>
      </trkpt>
      <trkpt lat="44.32591" lon="3.74996">
        <ele>1175.7293586147</ele>
        <time>2021-03-31T09:40:42.449Z</time>
      </trkpt>
      <trkpt lat="44.32569" lon="3.74962">
        <ele>1180.7823308722</ele>
        <time>2021-03-31T09:40:44.367Z</time>
      </trkpt>
      <trkpt lat="44.32508" lon="3.74894">
        <ele>1186.3052914952</ele>
        <time>2021-03-31T09:40:46.311Z</time>
      </trkpt>
      <trkpt lat="44.32389" lon="3.74772">
        <ele>1192.1002757454</ele>
        <time>2021-03-31T09:40:48.304Z</time>
      </trkpt>
      <trkpt lat="44.32328" lon="3.74727">
        <ele>1197.4747185517</ele>
        <time>2021-03-31T09:40:50.320Z</time>
      </trkpt>
      <trkpt lat="44.32302" lon="3.74721">
        <ele>1202.963618431</ele>
        <time>2021-03-31T09:40:52.345Z</time>
      </trkpt>
      <trkpt lat="44.32302" lon="3.74721">
        <ele>1207.9915424086</ele>
        <time>2021-03-31T09:40:54.370Z</time>
      </trkpt>
      <trkpt lat="44.32229" lon="3.74738">
        <ele>1213.4713259891</ele>
        <time>2021-03-31T09:40:56.419Z</time>
      </trkpt>
      <trkpt lat="44.32155" lon="3.74793">
        <ele>1218.913967031</ele>
        <time>2021-03-31T09:40:58.496Z</time>
      </trkpt>
      <trkpt lat="44.32085" lon="3.74879">
        <ele>1224.9152787033</ele>
        <time>2021-03-31T09:41:00.605Z</time>
      </trkpt>
      <trkpt lat="44.32055" lon="3.74929">
        <ele>1230.5694000352</ele>
        <time>2021-03-31T09:41:02.729Z</time>
      </trkpt>
      <trkpt lat="44.32031" lon="3.74936">
        <ele>1235.7243037975</ele>
        <time>2021-03-31T09:41:04.862Z</time>
      </trkpt>
      <trkpt lat="44.3203" lon="3.74937">
        <ele>1245.6129315343</ele>
        <time>2021-03-31T09:41:06.995Z</time>
      </trkpt>
      <trkpt lat="44.3203" lon="3.74936">
        <ele>1250.57161713</ele>
        <time>2021-03-31T09:41:09.128Z</time>
      </trkpt>
      <trkpt lat="44.32027" lon="3.74937">
        <ele>1255.5975026604</ele>
        <time>2021-03-31T09:41:11.262Z</time>
      </trkpt>
      <trkpt lat="44.32012" lon="3.74932">
        <ele>1260.7387398626</ele>
        <time>2021-03-31T09:41:13.401Z</time>
      </trkpt>
      <trkpt lat="44.31975" lon="3.74907">
        <ele>1266.0521378581</ele>
        <time>2021-03-31T09:41:15.554Z</time>
      </trkpt>
      <trkpt lat="44.31959" lon="3.74884">
        <ele>1271.2133406733</ele>
        <time>2021-03-31T09:41:17.714Z</time>
      </trkpt>
      <trkpt lat="44.31926" lon="3.74856">
        <ele>1276.8013414166</ele>
        <time>2021-03-31T09:41:19.887Z</time>
      </trkpt>
      <trkpt lat="44.3189" lon="3.74798">
        <ele>1282.5683757009</ele>
        <time>2021-03-31T09:41:22.079Z</time>
      </trkpt>
      <trkpt lat="44.31804" lon="3.74698">
        <ele>1289.3449697112</ele>
        <time>2021-03-31T09:41:24.308Z</time>
      </trkpt>
      <trkpt lat="44.31765" lon="3.74675">
        <ele>1295.6895156589</ele>
        <time>2021-03-31T09:41:26.551Z</time>
      </trkpt>
      <trkpt lat="44.31683" lon="3.74592">
        <ele>1302.1113700106</ele>
        <time>2021-03-31T09:41:28.828Z</time>
      </trkpt>
      <trkpt lat="44.31673" lon="3.74531">
        <ele>1308.0988617966</ele>
        <time>2021-03-31T09:41:31.120Z</time>
      </trkpt>
      <trkpt lat="44.31673" lon="3.74531">
        <ele>1320.2354014016</ele>
        <time>2021-03-31T09:41:33.412Z</time>
      </trkpt>
      <trkpt lat="44.31672" lon="3.74525">
        <ele>1326.4218526932</ele>
        <time>2021-03-31T09:41:35.705Z</time>
      </trkpt>
      <trkpt lat="44.31639" lon="3.74443">
        <ele>1332.8499791851</ele>
        <time>2021-03-31T09:41:38.021Z</time>
      </trkpt>
      <trkpt lat="44.316" lon="3.74312">
        <ele>1339.7731883307</ele>
        <time>2021-03-31T09:41:40.371Z</time>
      </trkpt>
      <trkpt lat="44.31587" lon="3.74219">
        <ele>1346.4107090879</ele>
        <time>2021-03-31T09:41:42.744Z</time>
      </trkpt>
      <trkpt lat="44.31573" lon="3.74178">
        <ele>1352.8748313373</ele>
        <time>2021-03-31T09:41:45.127Z</time>
      </trkpt>
      <trkpt lat="44.31555" lon="3.74125">
        <ele>1359.4232181806</ele>
        <time>2021-03-31T09:41:47.524Z</time>
      </trkpt>
      <trkpt lat="44.31554" lon="3.74095">
        <ele>1365.7264815838</ele>
        <time>2021-03-31T09:41:49.928Z</time>
      </trkpt>
      <trkpt lat="44.31493" lon="3.73678">
        <ele>1375.0496527457</ele>
        <time>2021-03-31T09:41:52.434Z</time>
      </trkpt>
      <trkpt lat="44.31535" lon="3.73632">
        <ele>1380.7125503586</ele>
        <time>2021-03-31T09:41:54.958Z</time>
      </trkpt>
      <trkpt lat="44.31535" lon="3.73632">
        <ele>1391.5269956295</ele>
        <time>2021-03-31T09:41:57.482Z</time>
      </trkpt>
      <trkpt lat="44.31535" lon="3.73632">
        <ele>1396.4627410413</ele>
        <time>2021-03-31T09:42:00.006Z</time>
      </trkpt>
      <trkpt lat="44.31554" lon="3.7361">
        <ele>1400.8232024436</ele>
        <time>2021-03-31T09:42:02.538Z</time>
      </trkpt>
      <trkpt lat="44.31583" lon="3.73568">
        <ele>1404.8140317458</ele>
        <time>2021-03-31T09:42:05.084Z</time>
      </trkpt>
      <trkpt lat="44.31638" lon="3.73479">
        <ele>1408.0274373213</ele>
        <time>2021-03-31T09:42:07.658Z</time>
      </trkpt>
      <trkpt lat="44.31693" lon="3.7311">
        <ele>1411.5959109276</ele>
        <time>2021-03-31T09:42:10.323Z</time>
      </trkpt>
      <trkpt lat="44.31688" lon="3.73077">
        <ele>1414.8928569935</ele>
        <time>2021-03-31T09:42:12.996Z</time>
      </trkpt>
      <trkpt lat="44.3169" lon="3.73064">
        <ele>1417.6511040533</ele>
        <time>2021-03-31T09:42:15.672Z</time>
      </trkpt>
      <trkpt lat="44.31692" lon="3.73047">
        <ele>1419.951764828</ele>
        <time>2021-03-31T09:42:18.352Z</time>
      </trkpt>
      <trkpt lat="44.31706" lon="3.72961">
        <ele>1422.2676042417</ele>
        <time>2021-03-31T09:42:21.053Z</time>
      </trkpt>
      <trkpt lat="44.31706" lon="3.72961">
        <ele>1423.3756580885</ele>
        <time>2021-03-31T09:42:23.754Z</time>
      </trkpt>
      <trkpt lat="44.31717" lon="3.72932">
        <ele>1424.201155449</ele>
        <time>2021-03-31T09:42:26.463Z</time>
      </trkpt>
      <trkpt lat="44.31717" lon="3.72932">
        <ele>1424.1183560684</ele>
        <time>2021-03-31T09:42:29.172Z</time>
      </trkpt>
      <trkpt lat="44.31758" lon="3.72817">
        <ele>1423.8709957345</ele>
        <time>2021-03-31T09:42:31.912Z</time>
      </trkpt>
      <trkpt lat="44.31762" lon="3.72785">
        <ele>1422.5598684756</ele>
        <time>2021-03-31T09:42:34.659Z</time>
      </trkpt>
      <trkpt lat="44.31762" lon="3.72785">
        <ele>1420.4501941509</ele>
        <time>2021-03-31T09:42:37.406Z</time>
      </trkpt>
      <trkpt lat="44.31752" lon="3.72669">
        <ele>1418.0061022955</ele>
        <time>2021-03-31T09:42:40.181Z</time>
      </trkpt>
      <trkpt lat="44.31735" lon="3.7259">
        <ele>1414.5114726999</ele>
        <time>2021-03-31T09:42:42.976Z</time>
      </trkpt>
      <trkpt lat="44.31725" lon="3.72499">
        <ele>1409.8159362056</ele>
        <time>2021-03-31T09:42:45.793Z</time>
      </trkpt>
      <trkpt lat="44.31711" lon="3.72452">
        <ele>1404.7915329223</ele>
        <time>2021-03-31T09:42:48.622Z</time>
      </trkpt>
      <trkpt lat="44.31681" lon="3.72319">
        <ele>1398.6926259998</ele>
        <time>2021-03-31T09:42:51.485Z</time>
      </trkpt>
      <trkpt lat="44.3167" lon="3.72297">
        <ele>1392.2576081995</ele>
        <time>2021-03-31T09:42:54.354Z</time>
      </trkpt>
      <trkpt lat="44.31664" lon="3.72182">
        <ele>1384.8561143048</ele>
        <time>2021-03-31T09:42:57.251Z</time>
      </trkpt>
      <trkpt lat="44.31677" lon="3.72036">
        <ele>1376.3290594774</ele>
        <time>2021-03-31T09:43:00.183Z</time>
      </trkpt>
      <trkpt lat="44.31702" lon="3.71979">
        <ele>1367.9075022837</ele>
        <time>2021-03-31T09:43:03.131Z</time>
      </trkpt>
      <trkpt lat="44.31809" lon="3.71796">
        <ele>1357.9346842663</ele>
        <time>2021-03-31T09:43:06.135Z</time>
      </trkpt>
      <trkpt lat="44.31986" lon="3.71633">
        <ele>1346.1941289068</ele>
        <time>2021-03-31T09:43:09.210Z</time>
      </trkpt>
      <trkpt lat="44.31992" lon="3.71625">
        <ele>1337.1258187915</ele>
        <time>2021-03-31T09:43:12.288Z</time>
      </trkpt>
      <trkpt lat="44.31993" lon="3.71616">
        <ele>1327.9589480873</ele>
        <time>2021-03-31T09:43:15.368Z</time>
      </trkpt>
      <trkpt lat="44.31971" lon="3.71573">
        <ele>1318.6246202094</ele>
        <time>2021-03-31T09:43:18.461Z</time>
      </trkpt>
      <trkpt lat="44.31927" lon="3.71516">
        <ele>1309.0757035044</ele>
        <time>2021-03-31T09:43:21.574Z</time>
      </trkpt>
      <trkpt lat="44.31913" lon="3.71475">
        <ele>1299.5624649887</ele>
        <time>2021-03-31T09:43:24.698Z</time>
      </trkpt>
      <trkpt lat="44.31913" lon="3.71434">
        <ele>1290.0572004437</ele>
        <time>2021-03-31T09:43:27.832Z</time>
      </trkpt>
      <trkpt lat="44.31902" lon="3.71415">
        <ele>1281.0334242375</ele>
        <time>2021-03-31T09:43:30.971Z</time>
      </trkpt>
      <trkpt lat="44.31898" lon="3.71381">
        <ele>1271.9600103024</ele>
        <time>2021-03-31T09:43:34.119Z</time>
      </trkpt>
      <trkpt lat="44.3188" lon="3.71322">
        <ele>1263.0581550893</ele>
        <time>2021-03-31T09:43:37.282Z</time>
      </trkpt>
      <trkpt lat="44.31874" lon="3.71231">
        <ele>1254.124594447</ele>
        <time>2021-03-31T09:43:40.467Z</time>
      </trkpt>
      <trkpt lat="44.31863" lon="3.71179">
        <ele>1245.7927721019</ele>
        <time>2021-03-31T09:43:43.665Z</time>
      </trkpt>
      <trkpt lat="44.31843" lon="3.7116">
        <ele>1237.9577992372</ele>
        <time>2021-03-31T09:43:46.871Z</time>
      </trkpt>
      <trkpt lat="44.31842" lon="3.71146">
        <ele>1230.5678455457</ele>
        <time>2021-03-31T09:43:50.080Z</time>
      </trkpt>
      <trkpt lat="44.31902" lon="3.71008">
        <ele>1222.5577721462</ele>
        <time>2021-03-31T09:43:53.328Z</time>
      </trkpt>
      <trkpt lat="44.31902" lon="3.71008">
        <ele>1210.2680392766</ele>
        <time>2021-03-31T09:43:56.576Z</time>
      </trkpt>
      <trkpt lat="44.31962" lon="3.70872">
        <ele>1203.9036311347</ele>
        <time>2021-03-31T09:43:59.862Z</time>
      </trkpt>
      <trkpt lat="44.31973" lon="3.70852">
        <ele>1198.8191440084</ele>
        <time>2021-03-31T09:44:03.154Z</time>
      </trkpt>
      <trkpt lat="44.32009" lon="3.70836">
        <ele>1194.1397356095</ele>
        <time>2021-03-31T09:44:06.459Z</time>
      </trkpt>
      <trkpt lat="44.32022" lon="3.70814">
        <ele>1189.8744634415</ele>
        <time>2021-03-31T09:44:09.771Z</time>
      </trkpt>
      <trkpt lat="44.32042" lon="3.70796">
        <ele>1185.9927407146</ele>
        <time>2021-03-31T09:44:13.091Z</time>
      </trkpt>
      <trkpt lat="44.32093" lon="3.70681">
        <ele>1182.0599584325</ele>
        <time>2021-03-31T09:44:16.443Z</time>
      </trkpt>
      <trkpt lat="44.32101" lon="3.70674">
        <ele>1179.0559605182</ele>
        <time>2021-03-31T09:44:19.798Z</time>
      </trkpt>
      <trkpt lat="44.32112" lon="3.70651">
        <ele>1176.253227881</ele>
        <time>2021-03-31T09:44:23.160Z</time>
      </trkpt>
      <trkpt lat="44.32126" lon="3.70604">
        <ele>1173.5845311324</ele>
        <time>2021-03-31T09:44:26.534Z</time>
      </trkpt>
      <trkpt lat="44.32152" lon="3.70576">
        <ele>1171.3591950133</ele>
        <time>2021-03-31T09:44:29.919Z</time>
      </trkpt>
      <trkpt lat="44.32164" lon="3.70553">
        <ele>1169.5071043463</ele>
        <time>2021-03-31T09:44:33.311Z</time>
      </trkpt>
      <trkpt lat="44.32164" lon="3.70553">
        <ele>1166.4745424079</ele>
        <time>2021-03-31T09:44:36.703Z</time>
      </trkpt>
      <trkpt lat="44.32164" lon="3.70553">
        <ele>1165.1790865082</ele>
        <time>2021-03-31T09:44:40.095Z</time>
      </trkpt>
      <trkpt lat="44.32178" lon="3.70528">
        <ele>1164.0058499901</ele>
        <time>2021-03-31T09:44:43.494Z</time>
      </trkpt>
      <trkpt lat="44.32185" lon="3.70492">
        <ele>1162.8883626103</ele>
        <time>2021-03-31T09:44:46.902Z</time>
      </trkpt>
      <trkpt lat="44.32212" lon="3.70428">
        <ele>1161.9427079051</ele>
        <time>2021-03-31T09:44:50.328Z</time>
      </trkpt>
      <trkpt lat="44.32221" lon="3.70364">
        <ele>1160.7056994789</ele>
        <time>2021-03-31T09:44:53.770Z</time>
      </trkpt>
      <trkpt lat="44.32265" lon="3.70315">
        <ele>1159.4907942851</ele>
        <time>2021-03-31T09:44:57.230Z</time>
      </trkpt>
      <trkpt lat="44.32324" lon="3.70194">
        <ele>1157.6781970409</ele>
        <time>2021-03-31T09:45:00.725Z</time>
      </trkpt>
      <trkpt lat="44.32333" lon="3.70164">
        <ele>1156.1443760901</ele>
        <time>2021-03-31T09:45:04.228Z</time>
      </trkpt>
      <trkpt lat="44.32345" lon="3.70055">
        <ele>1154.5732356005</ele>
        <time>2021-03-31T09:45:07.758Z</time>
      </trkpt>
      <trkpt lat="44.32357" lon="3.70038">
        <ele>1152.8372905442</ele>
        <time>2021-03-31T09:45:11.293Z</time>
      </trkpt>
      <trkpt lat="44.32374" lon="3.69986">
        <ele>1150.6443292514</ele>
        <time>2021-03-31T09:45:14.842Z</time>
      </trkpt>
      <trkpt lat="44.32391" lon="3.6996">
        <ele>1148.5754459767</ele>
        <time>2021-03-31T09:45:18.399Z</time>
      </trkpt>
      <trkpt lat="44.32393" lon="3.69944">
        <ele>1146.6309729221</ele>
        <time>2021-03-31T09:45:21.960Z</time>
      </trkpt>
      <trkpt lat="44.32407" lon="3.69932">
        <ele>1144.3296029465</ele>
        <time>2021-03-31T09:45:25.527Z</time>
      </trkpt>
      <trkpt lat="44.32444" lon="3.69834">
        <ele>1141.8826876948</ele>
        <time>2021-03-31T09:45:29.120Z</time>
      </trkpt>
      <trkpt lat="44.32444" lon="3.69834">
        <ele>1139.5686520481</ele>
        <time>2021-03-31T09:45:32.713Z</time>
      </trkpt>
      <trkpt lat="44.32494" lon="3.69741">
        <ele>1137.0734448166</ele>
        <time>2021-03-31T09:45:36.334Z</time>
      </trkpt>
      <trkpt lat="44.32488" lon="3.69721">
        <ele>1134.4990644975</ele>
        <time>2021-03-31T09:45:39.960Z</time>
      </trkpt>
      <trkpt lat="44.32462" lon="3.6975">
        <ele>1131.7657815462</ele>
        <time>2021-03-31T09:45:43.597Z</time>
      </trkpt>
      <trkpt lat="44.32436" lon="3.69755">
        <ele>1128.9461015247</ele>
        <time>2021-03-31T09:45:47.243Z</time>
      </trkpt>
      <trkpt lat="44.32436" lon="3.69755">
        <ele>1126.0799216987</ele>
        <time>2021-03-31T09:45:50.889Z</time>
      </trkpt>
      <trkpt lat="44.3245" lon="3.69738">
        <ele>1122.9599340025</ele>
        <time>2021-03-31T09:45:54.541Z</time>
      </trkpt>
      <trkpt lat="44.32496" lon="3.69568">
        <ele>1119.3047293914</ele>
        <time>2021-03-31T09:45:58.237Z</time>
      </trkpt>
      <trkpt lat="44.32509" lon="3.6946">
        <ele>1115.8608288097</ele>
        <time>2021-03-31T09:46:01.959Z</time>
      </trkpt>
      <trkpt lat="44.32519" lon="3.69276">
        <ele>1112.25136543</ele>
        <time>2021-03-31T09:46:05.725Z</time>
      </trkpt>
      <trkpt lat="44.32528" lon="3.69237">
        <ele>1109.4040018597</ele>
        <time>2021-03-31T09:46:09.501Z</time>
      </trkpt>
      <trkpt lat="44.32548" lon="3.69087">
        <ele>1106.3284409958</ele>
        <time>2021-03-31T09:46:13.313Z</time>
      </trkpt>
      <trkpt lat="44.32539" lon="3.69037">
        <ele>1102.8292628738</ele>
        <time>2021-03-31T09:46:17.138Z</time>
      </trkpt>
      <trkpt lat="44.32512" lon="3.68964">
        <ele>1099.2776856567</ele>
        <time>2021-03-31T09:46:20.982Z</time>
      </trkpt>
      <trkpt lat="44.32495" lon="3.68873">
        <ele>1096.1934492339</ele>
        <time>2021-03-31T09:46:24.849Z</time>
      </trkpt>
      <trkpt lat="44.32503" lon="3.68763">
        <ele>1093.3867235558</ele>
        <time>2021-03-31T09:46:28.742Z</time>
      </trkpt>
      <trkpt lat="44.325" lon="3.68724">
        <ele>1090.5968382257</ele>
        <time>2021-03-31T09:46:32.645Z</time>
      </trkpt>
      <trkpt lat="44.32521" lon="3.6865">
        <ele>1087.9631129115</ele>
        <time>2021-03-31T09:46:36.567Z</time>
      </trkpt>
      <trkpt lat="44.32523" lon="3.68637">
        <ele>1085.4666837317</ele>
        <time>2021-03-31T09:46:40.492Z</time>
      </trkpt>
      <trkpt lat="44.32523" lon="3.68637">
        <ele>1080.9736636116</ele>
        <time>2021-03-31T09:46:44.417Z</time>
      </trkpt>
      <trkpt lat="44.32523" lon="3.68637">
        <ele>1078.9005488228</ele>
        <time>2021-03-31T09:46:48.342Z</time>
      </trkpt>
      <trkpt lat="44.32531" lon="3.68589">
        <ele>1076.784023394</ele>
        <time>2021-03-31T09:46:52.279Z</time>
      </trkpt>
      <trkpt lat="44.32542" lon="3.68562">
        <ele>1074.8759160066</ele>
        <time>2021-03-31T09:46:56.223Z</time>
      </trkpt>
      <trkpt lat="44.32585" lon="3.68375">
        <ele>1072.9277648401</ele>
        <time>2021-03-31T09:47:00.214Z</time>
      </trkpt>
      <trkpt lat="44.3262" lon="3.6826">
        <ele>1071.3785938113</ele>
        <time>2021-03-31T09:47:04.235Z</time>
      </trkpt>
      <trkpt lat="44.32624" lon="3.68105">
        <ele>1069.813687167</ele>
        <time>2021-03-31T09:47:08.293Z</time>
      </trkpt>
      <trkpt lat="44.32621" lon="3.67986">
        <ele>1068.0408604994</ele>
        <time>2021-03-31T09:47:12.380Z</time>
      </trkpt>
      <trkpt lat="44.32611" lon="3.67911">
        <ele>1066.5391267624</ele>
        <time>2021-03-31T09:47:16.485Z</time>
      </trkpt>
      <trkpt lat="44.32617" lon="3.67882">
        <ele>1064.9959592919</ele>
        <time>2021-03-31T09:47:20.597Z</time>
      </trkpt>
      <trkpt lat="44.32617" lon="3.67881">
        <ele>1062.3361394956</ele>
        <time>2021-03-31T09:47:24.709Z</time>
      </trkpt>
      <trkpt lat="44.32617" lon="3.67881">
        <ele>1061.0730282965</ele>
        <time>2021-03-31T09:47:28.821Z</time>
      </trkpt>
      <trkpt lat="44.32647" lon="3.67739">
        <ele>1059.6144900655</ele>
        <time>2021-03-31T09:47:32.969Z</time>
      </trkpt>
      <trkpt lat="44.32659" lon="3.67612">
        <ele>1058.2494275016</ele>
        <time>2021-03-31T09:47:37.148Z</time>
      </trkpt>
      <trkpt lat="44.3266" lon="3.6755">
        <ele>1056.9758562722</ele>
        <time>2021-03-31T09:47:41.341Z</time>
      </trkpt>
      <trkpt lat="44.32645" lon="3.67474">
        <ele>1055.6256666316</ele>
        <time>2021-03-31T09:47:45.553Z</time>
      </trkpt>
      <trkpt lat="44.32615" lon="3.67399">
        <ele>1054.5042995302</ele>
        <time>2021-03-31T09:47:49.786Z</time>
      </trkpt>
      <trkpt lat="44.32576" lon="3.67339">
        <ele>1053.4963140211</ele>
        <time>2021-03-31T09:47:54.038Z</time>
      </trkpt>
      <trkpt lat="44.32528" lon="3.67283">
        <ele>1052.4352528239</ele>
        <time>2021-03-31T09:47:58.311Z</time>
      </trkpt>
      <trkpt lat="44.32483" lon="3.67179">
        <ele>1051.244603348</ele>
        <time>2021-03-31T09:48:02.613Z</time>
      </trkpt>
      <trkpt lat="44.32479" lon="3.67155">
        <ele>1050.3180485187</ele>
        <time>2021-03-31T09:48:06.921Z</time>
      </trkpt>
      <trkpt lat="44.32493" lon="3.67055">
        <ele>1049.1218289725</ele>
        <time>2021-03-31T09:48:11.253Z</time>
      </trkpt>
      <trkpt lat="44.32471" lon="3.67023">
        <ele>1048.6777072541</ele>
        <time>2021-03-31T09:48:15.596Z</time>
      </trkpt>
      <trkpt lat="44.32459" lon="3.66966">
        <ele>1047.9270987197</ele>
        <time>2021-03-31T09:48:19.953Z</time>
      </trkpt>
      <trkpt lat="44.32478" lon="3.66848">
        <ele>1047.0731816312</ele>
        <time>2021-03-31T09:48:24.339Z</time>
      </trkpt>
      <trkpt lat="44.32481" lon="3.66756">
        <ele>1046.8400407406</ele>
        <time>2021-03-31T09:48:28.747Z</time>
      </trkpt>
      <trkpt lat="44.32491" lon="3.66702">
        <ele>1046.4379046038</ele>
        <time>2021-03-31T09:48:33.169Z</time>
      </trkpt>
      <trkpt lat="44.32572" lon="3.66524">
        <ele>1045.8747694269</ele>
        <time>2021-03-31T09:48:37.641Z</time>
      </trkpt>
      <trkpt lat="44.32634" lon="3.66431">
        <ele>1045.1151934369</ele>
        <time>2021-03-31T09:48:42.143Z</time>
      </trkpt>
      <trkpt lat="44.32674" lon="3.66353">
        <ele>1044.5432126955</ele>
        <time>2021-03-31T09:48:46.668Z</time>
      </trkpt>
      <trkpt lat="44.32725" lon="3.66324">
        <ele>1043.49854624</ele>
        <time>2021-03-31T09:48:51.212Z</time>
      </trkpt>
      <trkpt lat="44.32762" lon="3.66333">
        <ele>1042.1120976769</ele>
        <time>2021-03-31T09:48:55.768Z</time>
      </trkpt>
      <trkpt lat="44.3279" lon="3.66316">
        <ele>1041.0270829456</ele>
        <time>2021-03-31T09:49:00.334Z</time>
      </trkpt>
      <trkpt lat="44.32801" lon="3.66291">
        <ele>1040.1504446067</ele>
        <time>2021-03-31T09:49:04.907Z</time>
      </trkpt>
      <trkpt lat="44.32818" lon="3.66211">
        <ele>1038.8343306871</ele>
        <time>2021-03-31T09:49:09.500Z</time>
      </trkpt>
      <trkpt lat="44.32805" lon="3.66168">
        <ele>1038.5537908035</ele>
        <time>2021-03-31T09:49:14.104Z</time>
      </trkpt>
      <trkpt lat="44.32809" lon="3.6609">
        <ele>1037.7888121416</ele>
        <time>2021-03-31T09:49:18.727Z</time>
      </trkpt>
      <trkpt lat="44.32845" lon="3.66037">
        <ele>1036.2032664847</ele>
        <time>2021-03-31T09:49:23.368Z</time>
      </trkpt>
      <trkpt lat="44.32895" lon="3.65908">
        <ele>1034.799045571</ele>
        <time>2021-03-31T09:49:28.044Z</time>
      </trkpt>
      <trkpt lat="44.32901" lon="3.65887">
        <ele>1033.675958222</ele>
        <time>2021-03-31T09:49:32.725Z</time>
      </trkpt>
      <trkpt lat="44.32894" lon="3.65818">
        <ele>1033.0479462066</ele>
        <time>2021-03-31T09:49:37.423Z</time>
      </trkpt>
      <trkpt lat="44.3292" lon="3.65767">
        <ele>1031.7134336776</ele>
        <time>2021-03-31T09:49:42.136Z</time>
      </trkpt>
      <trkpt lat="44.3292" lon="3.6574">
        <ele>1030.7026639853</ele>
        <time>2021-03-31T09:49:46.855Z</time>
      </trkpt>
      <trkpt lat="44.32932" lon="3.65714">
        <ele>1029.3537646592</ele>
        <time>2021-03-31T09:49:51.582Z</time>
      </trkpt>
      <trkpt lat="44.32933" lon="3.65678">
        <ele>1028.1043863279</ele>
        <time>2021-03-31T09:49:56.317Z</time>
      </trkpt>
      <trkpt lat="44.32933" lon="3.65678">
        <ele>1026.7402143186</ele>
        <time>2021-03-31T09:50:01.052Z</time>
      </trkpt>
      <trkpt lat="44.32907" lon="3.65593">
        <ele>1025.9911393792</ele>
        <time>2021-03-31T09:50:05.809Z</time>
      </trkpt>
      <trkpt lat="44.32869" lon="3.65538">
        <ele>1023.7901727394</ele>
        <time>2021-03-31T09:50:10.585Z</time>
      </trkpt>
      <trkpt lat="44.32831" lon="3.65365">
        <ele>1021.5242734414</ele>
        <time>2021-03-31T09:50:15.404Z</time>
      </trkpt>
      <trkpt lat="44.32833" lon="3.65349">
        <ele>1019.5838405252</ele>
        <time>2021-03-31T09:50:20.227Z</time>
      </trkpt>
      <trkpt lat="44.3285" lon="3.65324">
        <ele>1017.7004166586</ele>
        <time>2021-03-31T09:50:25.058Z</time>
      </trkpt>
      <trkpt lat="44.32951" lon="3.6523">
        <ele>1016.0955612596</ele>
        <time>2021-03-31T09:50:29.930Z</time>
      </trkpt>
      <trkpt lat="44.3298" lon="3.65182">
        <ele>1013.8014003048</ele>
        <time>2021-03-31T09:50:34.817Z</time>
      </trkpt>
      <trkpt lat="44.32993" lon="3.65142">
        <ele>1011.5402240503</ele>
        <time>2021-03-31T09:50:39.714Z</time>
      </trkpt>
      <trkpt lat="44.32989" lon="3.65084">
        <ele>1008.9769216114</ele>
        <time>2021-03-31T09:50:44.625Z</time>
      </trkpt>
      <trkpt lat="44.32979" lon="3.65054">
        <ele>1006.4478202202</ele>
        <time>2021-03-31T09:50:49.544Z</time>
      </trkpt>
      <trkpt lat="44.32934" lon="3.65013">
        <ele>1003.3913311859</ele>
        <time>2021-03-31T09:50:54.481Z</time>
      </trkpt>
      <trkpt lat="44.3288" lon="3.64942">
        <ele>1000.1929832962</ele>
        <time>2021-03-31T09:50:59.442Z</time>
      </trkpt>
      <trkpt lat="44.32871" lon="3.64923">
        <ele>997.23094605448</ele>
        <time>2021-03-31T09:51:04.409Z</time>
      </trkpt>
      <trkpt lat="44.32862" lon="3.64875">
        <ele>994.2359889028</ele>
        <time>2021-03-31T09:51:09.388Z</time>
      </trkpt>
      <trkpt lat="44.32862" lon="3.64812">
        <ele>991.48359212351</ele>
        <time>2021-03-31T09:51:14.382Z</time>
      </trkpt>
      <trkpt lat="44.32878" lon="3.64731">
        <ele>988.09582380194</ele>
        <time>2021-03-31T09:51:19.396Z</time>
      </trkpt>
      <trkpt lat="44.32961" lon="3.64617">
        <ele>985.00502450459</ele>
        <time>2021-03-31T09:51:24.449Z</time>
      </trkpt>
      <trkpt lat="44.32981" lon="3.64567">
        <ele>981.96854409855</ele>
        <time>2021-03-31T09:51:29.516Z</time>
      </trkpt>
      <trkpt lat="44.32986" lon="3.64527">
        <ele>979.09196943299</ele>
        <time>2021-03-31T09:51:34.592Z</time>
      </trkpt>
      <trkpt lat="44.32983" lon="3.64474">
        <ele>976.05370817279</ele>
        <time>2021-03-31T09:51:39.681Z</time>
      </trkpt>
      <trkpt lat="44.32983" lon="3.64474">
        <ele>970.20005366611</ele>
        <time>2021-03-31T09:51:44.770Z</time>
      </trkpt>
      <trkpt lat="44.32983" lon="3.64474">
        <ele>967.25257387148</ele>
        <time>2021-03-31T09:51:49.859Z</time>
      </trkpt>
      <trkpt lat="44.32982" lon="3.64461">
        <ele>964.23015858892</ele>
        <time>2021-03-31T09:51:54.951Z</time>
      </trkpt>
      <trkpt lat="44.32958" lon="3.64338">
        <ele>960.39651079799</ele>
        <time>2021-03-31T09:52:00.074Z</time>
      </trkpt>
      <trkpt lat="44.32937" lon="3.64282">
        <ele>957.14294355164</ele>
        <time>2021-03-31T09:52:05.212Z</time>
      </trkpt>
      <trkpt lat="44.32937" lon="3.64282">
        <ele>954.14320350129</ele>
        <time>2021-03-31T09:52:10.350Z</time>
      </trkpt>
      <trkpt lat="44.3293" lon="3.64264">
        <ele>951.15184799968</ele>
        <time>2021-03-31T09:52:15.493Z</time>
      </trkpt>
      <trkpt lat="44.32925" lon="3.64256">
        <ele>948.12681843152</ele>
        <time>2021-03-31T09:52:20.638Z</time>
      </trkpt>
      <trkpt lat="44.32909" lon="3.64218">
        <ele>945.33655136283</ele>
        <time>2021-03-31T09:52:25.794Z</time>
      </trkpt>
      <trkpt lat="44.32903" lon="3.6418">
        <ele>942.36319593353</ele>
        <time>2021-03-31T09:52:30.959Z</time>
      </trkpt>
      <trkpt lat="44.32914" lon="3.63984">
        <ele>938.52238080827</ele>
        <time>2021-03-31T09:52:36.171Z</time>
      </trkpt>
      <trkpt lat="44.3291" lon="3.63923">
        <ele>935.04598972835</ele>
        <time>2021-03-31T09:52:41.398Z</time>
      </trkpt>
      <trkpt lat="44.32914" lon="3.63858">
        <ele>931.73599552256</ele>
        <time>2021-03-31T09:52:46.640Z</time>
      </trkpt>
      <trkpt lat="44.3293" lon="3.6377">
        <ele>928.6522117761</ele>
        <time>2021-03-31T09:52:51.904Z</time>
      </trkpt>
      <trkpt lat="44.32968" lon="3.6368">
        <ele>924.93560129847</ele>
        <time>2021-03-31T09:52:57.193Z</time>
      </trkpt>
      <trkpt lat="44.32973" lon="3.63643">
        <ele>921.58930716398</ele>
        <time>2021-03-31T09:53:02.491Z</time>
      </trkpt>
      <trkpt lat="44.32957" lon="3.6362">
        <ele>918.58174720329</ele>
        <time>2021-03-31T09:53:07.797Z</time>
      </trkpt>
      <trkpt lat="44.32919" lon="3.63606">
        <ele>915.82762478093</ele>
        <time>2021-03-31T09:53:13.116Z</time>
      </trkpt>
      <trkpt lat="44.32888" lon="3.63547">
        <ele>912.40121153385</ele>
        <time>2021-03-31T09:53:18.452Z</time>
      </trkpt>
      <trkpt lat="44.32868" lon="3.63488">
        <ele>909.28465238476</ele>
        <time>2021-03-31T09:53:23.804Z</time>
      </trkpt>
      <trkpt lat="44.32892" lon="3.63316">
        <ele>905.64767905504</ele>
        <time>2021-03-31T09:53:29.198Z</time>
      </trkpt>
      <trkpt lat="44.32954" lon="3.63195">
        <ele>901.76558784247</ele>
        <time>2021-03-31T09:53:34.627Z</time>
      </trkpt>
      <trkpt lat="44.32993" lon="3.63033">
        <ele>899.24274529976</ele>
        <time>2021-03-31T09:53:40.097Z</time>
      </trkpt>
      <trkpt lat="44.3302" lon="3.63002">
        <ele>896.45229728492</ele>
        <time>2021-03-31T09:53:45.579Z</time>
      </trkpt>
      <trkpt lat="44.33053" lon="3.62982">
        <ele>894.13098642043</ele>
        <time>2021-03-31T09:53:51.073Z</time>
      </trkpt>
      <trkpt lat="44.33104" lon="3.6298">
        <ele>891.38048398426</ele>
        <time>2021-03-31T09:53:56.584Z</time>
      </trkpt>
      <trkpt lat="44.33123" lon="3.62953">
        <ele>889.01576210219</ele>
        <time>2021-03-31T09:54:02.104Z</time>
      </trkpt>
      <trkpt lat="44.33127" lon="3.62937">
        <ele>886.69486600211</ele>
        <time>2021-03-31T09:54:07.628Z</time>
      </trkpt>
      <trkpt lat="44.33127" lon="3.62892">
        <ele>884.45954391225</ele>
        <time>2021-03-31T09:54:13.163Z</time>
      </trkpt>
      <trkpt lat="44.3311" lon="3.62834">
        <ele>882.27369977154</ele>
        <time>2021-03-31T09:54:18.713Z</time>
      </trkpt>
      <trkpt lat="44.3311" lon="3.62834">
        <ele>878.37112140072</ele>
        <time>2021-03-31T09:54:24.263Z</time>
      </trkpt>
      <trkpt lat="44.3311" lon="3.62834">
        <ele>876.4827968438</ele>
        <time>2021-03-31T09:54:29.813Z</time>
      </trkpt>
      <trkpt lat="44.33093" lon="3.62778">
        <ele>874.71126951879</ele>
        <time>2021-03-31T09:54:35.377Z</time>
      </trkpt>
      <trkpt lat="44.33079" lon="3.62688">
        <ele>873.10481845048</ele>
        <time>2021-03-31T09:54:40.963Z</time>
      </trkpt>
      <trkpt lat="44.33102" lon="3.62613">
        <ele>870.68896585652</ele>
        <time>2021-03-31T09:54:46.569Z</time>
      </trkpt>
      <trkpt lat="44.3311" lon="3.62556">
        <ele>869.14692971501</ele>
        <time>2021-03-31T09:54:52.189Z</time>
      </trkpt>
      <trkpt lat="44.33192" lon="3.62435">
        <ele>867.075946588</ele>
        <time>2021-03-31T09:54:57.849Z</time>
      </trkpt>
      <trkpt lat="44.33222" lon="3.62437">
        <ele>864.67486788146</ele>
        <time>2021-03-31T09:55:03.519Z</time>
      </trkpt>
      <trkpt lat="44.33313" lon="3.62476">
        <ele>861.87085421723</ele>
        <time>2021-03-31T09:55:09.220Z</time>
      </trkpt>
      <trkpt lat="44.33355" lon="3.62476">
        <ele>859.81852202003</ele>
        <time>2021-03-31T09:55:14.935Z</time>
      </trkpt>
      <trkpt lat="44.33401" lon="3.6245">
        <ele>857.44244792156</ele>
        <time>2021-03-31T09:55:20.667Z</time>
      </trkpt>
      <trkpt lat="44.33446" lon="3.62405">
        <ele>855.44016957117</ele>
        <time>2021-03-31T09:55:26.417Z</time>
      </trkpt>
      <trkpt lat="44.33478" lon="3.6239">
        <ele>853.05529190319</ele>
        <time>2021-03-31T09:55:32.179Z</time>
      </trkpt>
      <trkpt lat="44.33507" lon="3.62357">
        <ele>850.60169946461</ele>
        <time>2021-03-31T09:55:37.953Z</time>
      </trkpt>
      <trkpt lat="44.33513" lon="3.62365">
        <ele>848.25214505397</ele>
        <time>2021-03-31T09:55:43.730Z</time>
      </trkpt>
      <trkpt lat="44.3351" lon="3.62374">
        <ele>845.993597452</ele>
        <time>2021-03-31T09:55:49.509Z</time>
      </trkpt>
      <trkpt lat="44.33476" lon="3.62413">
        <ele>843.81915307057</ele>
        <time>2021-03-31T09:55:55.303Z</time>
      </trkpt>
      <trkpt lat="44.33434" lon="3.62487">
        <ele>840.85448216639</ele>
        <time>2021-03-31T09:56:01.120Z</time>
      </trkpt>
      <trkpt lat="44.33396" lon="3.62528">
        <ele>838.49425311975</ele>
        <time>2021-03-31T09:56:06.953Z</time>
      </trkpt>
      <trkpt lat="44.33396" lon="3.62528">
        <ele>836.10485328042</ele>
        <time>2021-03-31T09:56:12.786Z</time>
      </trkpt>
      <trkpt lat="44.33358" lon="3.62555">
        <ele>833.34958566794</ele>
        <time>2021-03-31T09:56:18.633Z</time>
      </trkpt>
      <trkpt lat="44.33339" lon="3.6256">
        <ele>830.74087661846</ele>
        <time>2021-03-31T09:56:24.487Z</time>
      </trkpt>
      <trkpt lat="44.33292" lon="3.62562">
        <ele>827.95435554429</ele>
        <time>2021-03-31T09:56:30.356Z</time>
      </trkpt>
      <trkpt lat="44.33233" lon="3.6254">
        <ele>825.71040230547</ele>
        <time>2021-03-31T09:56:36.245Z</time>
      </trkpt>
      <trkpt lat="44.33218" lon="3.62552">
        <ele>823.15207966613</ele>
        <time>2021-03-31T09:56:42.140Z</time>
      </trkpt>
      <trkpt lat="44.33181" lon="3.62614">
        <ele>820.81175573033</ele>
        <time>2021-03-31T09:56:48.055Z</time>
      </trkpt>
      <trkpt lat="44.33196" lon="3.62664">
        <ele>817.40133156336</ele>
        <time>2021-03-31T09:56:53.982Z</time>
      </trkpt>
      <trkpt lat="44.33183" lon="3.62712">
        <ele>815.40073598018</ele>
        <time>2021-03-31T09:56:59.922Z</time>
      </trkpt>
      <trkpt lat="44.33187" lon="3.62744">
        <ele>812.95664335273</ele>
        <time>2021-03-31T09:57:05.870Z</time>
      </trkpt>
      <trkpt lat="44.33226" lon="3.62771">
        <ele>809.21919881845</ele>
        <time>2021-03-31T09:57:11.832Z</time>
      </trkpt>
      <trkpt lat="44.33226" lon="3.62771">
        <ele>804.34778263734</ele>
        <time>2021-03-31T09:57:17.794Z</time>
      </trkpt>
      <trkpt lat="44.33226" lon="3.62771">
        <ele>801.94978089499</ele>
        <time>2021-03-31T09:57:23.756Z</time>
      </trkpt>
      <trkpt lat="44.33227" lon="3.62772">
        <ele>799.54366018044</ele>
        <time>2021-03-31T09:57:29.718Z</time>
      </trkpt>
      <trkpt lat="44.33242" lon="3.6279">
        <ele>796.88162801477</ele>
        <time>2021-03-31T09:57:35.687Z</time>
      </trkpt>
      <trkpt lat="44.33301" lon="3.62896">
        <ele>794.18650334451</ele>
        <time>2021-03-31T09:57:41.688Z</time>
      </trkpt>
      <trkpt lat="44.3336" lon="3.62968">
        <ele>791.54861860239</ele>
        <time>2021-03-31T09:57:47.715Z</time>
      </trkpt>
      <trkpt lat="44.33363" lon="3.62981">
        <ele>789.25512659981</ele>
        <time>2021-03-31T09:57:53.746Z</time>
      </trkpt>
      <trkpt lat="44.33364" lon="3.62996">
        <ele>786.94348442852</ele>
        <time>2021-03-31T09:57:59.780Z</time>
      </trkpt>
      <trkpt lat="44.33341" lon="3.63066">
        <ele>784.54642763127</ele>
        <time>2021-03-31T09:58:05.833Z</time>
      </trkpt>
      <trkpt lat="44.33319" lon="3.63182">
        <ele>781.46765391567</ele>
        <time>2021-03-31T09:58:11.914Z</time>
      </trkpt>
      <trkpt lat="44.33302" lon="3.6323">
        <ele>778.80862593095</ele>
        <time>2021-03-31T09:58:18.008Z</time>
      </trkpt>
      <trkpt lat="44.33295" lon="3.6324">
        <ele>776.3157961757</ele>
        <time>2021-03-31T09:58:24.106Z</time>
      </trkpt>
      <trkpt lat="44.33218" lon="3.63266">
        <ele>773.9747104508</ele>
        <time>2021-03-31T09:58:30.230Z</time>
      </trkpt>
      <trkpt lat="44.33208" lon="3.63282">
        <ele>771.23515833607</ele>
        <time>2021-03-31T09:58:36.359Z</time>
      </trkpt>
      <trkpt lat="44.3321" lon="3.63292">
        <ele>768.35833828225</ele>
        <time>2021-03-31T09:58:42.491Z</time>
      </trkpt>
      <trkpt lat="44.33263" lon="3.63353">
        <ele>764.64536765039</ele>
        <time>2021-03-31T09:58:48.646Z</time>
      </trkpt>
      <trkpt lat="44.33304" lon="3.63424">
        <ele>761.18900105736</ele>
        <time>2021-03-31T09:58:54.822Z</time>
      </trkpt>
      <trkpt lat="44.33347" lon="3.63597">
        <ele>758.14907114808</ele>
        <time>2021-03-31T09:59:01.042Z</time>
      </trkpt>
      <trkpt lat="44.33364" lon="3.63622">
        <ele>754.72396388056</ele>
        <time>2021-03-31T09:59:07.270Z</time>
      </trkpt>
      <trkpt lat="44.33373" lon="3.63623">
        <ele>751.02061688313</ele>
        <time>2021-03-31T09:59:13.501Z</time>
      </trkpt>
      <trkpt lat="44.33396" lon="3.63566">
        <ele>746.50390082069</ele>
        <time>2021-03-31T09:59:19.748Z</time>
      </trkpt>
      <trkpt lat="44.33421" lon="3.63546">
        <ele>742.25739634679</ele>
        <time>2021-03-31T09:59:26.005Z</time>
      </trkpt>
      <trkpt lat="44.33416" lon="3.63532">
        <ele>737.97216781956</ele>
        <time>2021-03-31T09:59:32.265Z</time>
      </trkpt>
      <trkpt lat="44.33424" lon="3.63493">
        <ele>733.31250763958</ele>
        <time>2021-03-31T09:59:38.535Z</time>
      </trkpt>
      <trkpt lat="44.33455" lon="3.63485">
        <ele>728.96839533096</ele>
        <time>2021-03-31T09:59:44.816Z</time>
      </trkpt>
      <trkpt lat="44.33474" lon="3.63364">
        <ele>723.26605917886</ele>
        <time>2021-03-31T09:59:51.126Z</time>
      </trkpt>
      <trkpt lat="44.33514" lon="3.63316">
        <ele>717.9856014712</ele>
        <time>2021-03-31T09:59:57.454Z</time>
      </trkpt>
      <trkpt lat="44.33514" lon="3.63316">
        <ele>707.81022812778</ele>
        <time>2021-03-31T10:00:03.782Z</time>
      </trkpt>
      <trkpt lat="44.33514" lon="3.63316">
        <ele>702.53108668115</ele>
        <time>2021-03-31T10:00:10.110Z</time>
      </trkpt>
      <trkpt lat="44.33585" lon="3.63229">
        <ele>696.13590976018</ele>
        <time>2021-03-31T10:00:16.469Z</time>
      </trkpt>
      <trkpt lat="44.33614" lon="3.63213">
        <ele>690.47561452503</ele>
        <time>2021-03-31T10:00:22.839Z</time>
      </trkpt>
      <trkpt lat="44.33649" lon="3.63166">
        <ele>684.43830737733</ele>
        <time>2021-03-31T10:00:29.225Z</time>
      </trkpt>
      <trkpt lat="44.3368" lon="3.63145">
        <ele>678.63640668883</ele>
        <time>2021-03-31T10:00:35.622Z</time>
      </trkpt>
      <trkpt lat="44.33724" lon="3.63081">
        <ele>672.70276281392</ele>
        <time>2021-03-31T10:00:42.041Z</time>
      </trkpt>
      <trkpt lat="44.33801" lon="3.63039">
        <ele>666.49641782067</ele>
        <time>2021-03-31T10:00:48.487Z</time>
      </trkpt>
      <trkpt lat="44.33845" lon="3.63034">
        <ele>660.73916337531</ele>
        <time>2021-03-31T10:00:54.948Z</time>
      </trkpt>
      <trkpt lat="44.33885" lon="3.63039">
        <ele>655.32674602735</ele>
        <time>2021-03-31T10:01:01.422Z</time>
      </trkpt>
      <trkpt lat="44.33902" lon="3.63006">
        <ele>649.72468299348</ele>
        <time>2021-03-31T10:01:07.906Z</time>
      </trkpt>
      <trkpt lat="44.33941" lon="3.62984">
        <ele>644.08699159146</ele>
        <time>2021-03-31T10:01:14.404Z</time>
      </trkpt>
      <trkpt lat="44.33979" lon="3.62979">
        <ele>638.45088739463</ele>
        <time>2021-03-31T10:01:20.915Z</time>
      </trkpt>
      <trkpt lat="44.34049" lon="3.62995">
        <ele>633.28225224661</ele>
        <time>2021-03-31T10:01:27.449Z</time>
      </trkpt>
      <trkpt lat="44.34138" lon="3.62984">
        <ele>627.83194516173</ele>
        <time>2021-03-31T10:01:34.013Z</time>
      </trkpt>
      <trkpt lat="44.34175" lon="3.62988">
        <ele>622.85109572805</ele>
        <time>2021-03-31T10:01:40.590Z</time>
      </trkpt>
      <trkpt lat="44.34256" lon="3.62965">
        <ele>617.94006639422</ele>
        <time>2021-03-31T10:01:47.194Z</time>
      </trkpt>
      <trkpt lat="44.34343" lon="3.6291">
        <ele>613.03259734969</ele>
        <time>2021-03-31T10:01:53.830Z</time>
      </trkpt>
      <trkpt lat="44.34402" lon="3.62798">
        <ele>608.04553508579</ele>
        <time>2021-03-31T10:02:00.499Z</time>
      </trkpt>
      <trkpt lat="44.34483" lon="3.62756">
        <ele>604.02418652375</ele>
        <time>2021-03-31T10:02:07.197Z</time>
      </trkpt>
      <trkpt lat="44.34522" lon="3.62714">
        <ele>600.33237479917</ele>
        <time>2021-03-31T10:02:13.912Z</time>
      </trkpt>
      <trkpt lat="44.34532" lon="3.62694">
        <ele>596.81316406188</ele>
        <time>2021-03-31T10:02:20.632Z</time>
      </trkpt>
      <trkpt lat="44.34529" lon="3.62614">
        <ele>593.24331248213</ele>
        <time>2021-03-31T10:02:27.371Z</time>
      </trkpt>
      <trkpt lat="44.3457" lon="3.62535">
        <ele>589.54538950508</ele>
        <time>2021-03-31T10:02:34.134Z</time>
      </trkpt>
      <trkpt lat="44.34576" lon="3.62484">
        <ele>586.87920116936</ele>
        <time>2021-03-31T10:02:40.909Z</time>
      </trkpt>
      <trkpt lat="44.34571" lon="3.62434">
        <ele>585.00828172854</ele>
        <time>2021-03-31T10:02:47.696Z</time>
      </trkpt>
      <trkpt lat="44.34574" lon="3.62405">
        <ele>582.8901629695</ele>
        <time>2021-03-31T10:02:54.490Z</time>
      </trkpt>
      <trkpt lat="44.34583" lon="3.6239">
        <ele>580.84216110306</ele>
        <time>2021-03-31T10:03:01.289Z</time>
      </trkpt>
      <trkpt lat="44.34583" lon="3.6239">
        <ele>579.1846202747</ele>
        <time>2021-03-31T10:03:08.088Z</time>
      </trkpt>
      <trkpt lat="44.34598" lon="3.62346">
        <ele>577.43033552248</ele>
        <time>2021-03-31T10:03:14.898Z</time>
      </trkpt>
      <trkpt lat="44.34596" lon="3.62325">
        <ele>576.27201298174</ele>
        <time>2021-03-31T10:03:21.714Z</time>
      </trkpt>
      <trkpt lat="44.34584" lon="3.6228">
        <ele>575.46221158977</ele>
        <time>2021-03-31T10:03:28.541Z</time>
      </trkpt>
      <trkpt lat="44.34578" lon="3.62211">
        <ele>574.34447624825</ele>
        <time>2021-03-31T10:03:35.385Z</time>
      </trkpt>
      <trkpt lat="44.34534" lon="3.62053">
        <ele>573.57357336448</ele>
        <time>2021-03-31T10:03:42.269Z</time>
      </trkpt>
      <trkpt lat="44.34394" lon="3.61772">
        <ele>572.84715042175</ele>
        <time>2021-03-31T10:03:49.235Z</time>
      </trkpt>
      <trkpt lat="44.34392" lon="3.61747">
        <ele>572.48711961755</ele>
        <time>2021-03-31T10:03:56.207Z</time>
      </trkpt>
      <trkpt lat="44.34392" lon="3.61747">
        <ele>572.34129148063</ele>
        <time>2021-03-31T10:04:03.179Z</time>
      </trkpt>
      <trkpt lat="44.34403" lon="3.61709">
        <ele>572.19570844399</ele>
        <time>2021-03-31T10:04:10.161Z</time>
      </trkpt>
      <trkpt lat="44.34401" lon="3.61694">
        <ele>572.31706175116</ele>
        <time>2021-03-31T10:04:17.146Z</time>
      </trkpt>
      <trkpt lat="44.34392" lon="3.61654">
        <ele>572.59729777229</ele>
        <time>2021-03-31T10:04:24.141Z</time>
      </trkpt>
      <trkpt lat="44.34356" lon="3.61566">
        <ele>573.00494131805</ele>
        <time>2021-03-31T10:04:31.161Z</time>
      </trkpt>
      <trkpt lat="44.34334" lon="3.61399">
        <ele>573.80706958702</ele>
        <time>2021-03-31T10:04:38.221Z</time>
      </trkpt>
      <trkpt lat="44.34334" lon="3.61399">
        <ele>574.79504372846</ele>
        <time>2021-03-31T10:04:45.281Z</time>
      </trkpt>
      <trkpt lat="44.34334" lon="3.61399">
        <ele>575.3403532337</ele>
        <time>2021-03-31T10:04:52.341Z</time>
      </trkpt>
      <trkpt lat="44.34329" lon="3.61355">
        <ele>575.71966740092</ele>
        <time>2021-03-31T10:04:59.412Z</time>
      </trkpt>
      <trkpt lat="44.34338" lon="3.61193">
        <ele>576.55772643402</ele>
        <time>2021-03-31T10:05:06.522Z</time>
      </trkpt>
      <trkpt lat="44.34373" lon="3.61095">
        <ele>576.92087958006</ele>
        <time>2021-03-31T10:05:13.658Z</time>
      </trkpt>
      <trkpt lat="44.34407" lon="3.61011">
        <ele>577.5829015362</ele>
        <time>2021-03-31T10:05:20.817Z</time>
      </trkpt>
      <trkpt lat="44.34417" lon="3.60971">
        <ele>578.17838058951</ele>
        <time>2021-03-31T10:05:27.986Z</time>
      </trkpt>
      <trkpt lat="44.34423" lon="3.60891">
        <ele>578.49253604402</ele>
        <time>2021-03-31T10:05:35.174Z</time>
      </trkpt>
      <trkpt lat="44.34423" lon="3.60891">
        <ele>579.00071946666</ele>
        <time>2021-03-31T10:05:42.362Z</time>
      </trkpt>
      <trkpt lat="44.34421" lon="3.60853">
        <ele>579.31443050599</ele>
        <time>2021-03-31T10:05:49.560Z</time>
      </trkpt>
      <trkpt lat="44.34357" lon="3.60859">
        <ele>579.83492029553</ele>
        <time>2021-03-31T10:05:56.779Z</time>
      </trkpt>
      <trkpt lat="44.34302" lon="3.60818">
        <ele>580.17314102379</ele>
        <time>2021-03-31T10:06:04.019Z</time>
      </trkpt>
      <trkpt lat="44.34249" lon="3.60758">
        <ele>580.82526992617</ele>
        <time>2021-03-31T10:06:11.281Z</time>
      </trkpt>
      <trkpt lat="44.3424" lon="3.60744">
        <ele>581.21657128775</ele>
        <time>2021-03-31T10:06:18.548Z</time>
      </trkpt>
      <trkpt lat="44.3424" lon="3.60744">
        <ele>581.53428436227</ele>
        <time>2021-03-31T10:06:25.815Z</time>
      </trkpt>
      <trkpt lat="44.34215" lon="3.60728">
        <ele>581.74979507055</ele>
        <time>2021-03-31T10:06:33.091Z</time>
      </trkpt>
      <trkpt lat="44.34215" lon="3.60728">
        <ele>581.97566934945</ele>
        <time>2021-03-31T10:06:40.367Z</time>
      </trkpt>
      <trkpt lat="44.34184" lon="3.60665">
        <ele>581.98870370625</ele>
        <time>2021-03-31T10:06:47.661Z</time>
      </trkpt>
      <trkpt lat="44.34184" lon="3.60665">
        <ele>582.19360444115</ele>
        <time>2021-03-31T10:06:54.956Z</time>
      </trkpt>
      <trkpt lat="44.34184" lon="3.60665">
        <ele>582.21245724986</ele>
        <time>2021-03-31T10:07:02.251Z</time>
      </trkpt>
      <trkpt lat="44.34184" lon="3.60665">
        <ele>582.16993435337</ele>
        <time>2021-03-31T10:07:09.546Z</time>
      </trkpt>
      <trkpt lat="44.34136" lon="3.60597">
        <ele>582.1106124587</ele>
        <time>2021-03-31T10:07:16.863Z</time>
      </trkpt>
      <trkpt lat="44.34132" lon="3.60588">
        <ele>581.94112547187</ele>
        <time>2021-03-31T10:07:24.183Z</time>
      </trkpt>
      <trkpt lat="44.34129" lon="3.60589">
        <ele>581.69283964732</ele>
        <time>2021-03-31T10:07:31.504Z</time>
      </trkpt>
      <trkpt lat="44.34083" lon="3.6053">
        <ele>581.53644170059</ele>
        <time>2021-03-31T10:07:38.846Z</time>
      </trkpt>
      <trkpt lat="44.34068" lon="3.60535">
        <ele>581.13269999169</ele>
        <time>2021-03-31T10:07:46.193Z</time>
      </trkpt>
      <trkpt lat="44.34066" lon="3.60487">
        <ele>580.59562721104</ele>
        <time>2021-03-31T10:07:53.552Z</time>
      </trkpt>
      <trkpt lat="44.34061" lon="3.60455">
        <ele>579.99849214066</ele>
        <time>2021-03-31T10:08:00.919Z</time>
      </trkpt>
      <trkpt lat="44.34066" lon="3.60434">
        <ele>579.20703374911</ele>
        <time>2021-03-31T10:08:08.291Z</time>
      </trkpt>
      <trkpt lat="44.34064" lon="3.60397">
        <ele>578.37939920128</ele>
        <time>2021-03-31T10:08:15.672Z</time>
      </trkpt>
      <trkpt lat="44.34068" lon="3.60394">
        <ele>577.41630146227</ele>
        <time>2021-03-31T10:08:23.054Z</time>
      </trkpt>
      <trkpt lat="44.34108" lon="3.60408">
        <ele>576.21066047561</ele>
        <time>2021-03-31T10:08:30.450Z</time>
      </trkpt>
      <trkpt lat="44.34256" lon="3.60378">
        <ele>574.59379048815</ele>
        <time>2021-03-31T10:08:37.896Z</time>
      </trkpt>
      <trkpt lat="44.34288" lon="3.60373">
        <ele>573.28457740238</ele>
        <time>2021-03-31T10:08:45.353Z</time>
      </trkpt>
      <trkpt lat="44.34289" lon="3.60373">
        <ele>570.88093948743</ele>
        <time>2021-03-31T10:08:52.810Z</time>
      </trkpt>
      <trkpt lat="44.34289" lon="3.60373">
        <ele>569.62901145603</ele>
        <time>2021-03-31T10:09:00.267Z</time>
      </trkpt>
      <trkpt lat="44.34305" lon="3.6037">
        <ele>568.29232093153</ele>
        <time>2021-03-31T10:09:07.729Z</time>
      </trkpt>
      <trkpt lat="44.34343" lon="3.60359">
        <ele>566.91356446414</ele>
        <time>2021-03-31T10:09:15.204Z</time>
      </trkpt>
      <trkpt lat="44.34323" lon="3.60276">
        <ele>565.57994805589</ele>
        <time>2021-03-31T10:09:22.700Z</time>
      </trkpt>
      <trkpt lat="44.34323" lon="3.60216">
        <ele>564.6773152151</ele>
        <time>2021-03-31T10:09:30.210Z</time>
      </trkpt>
      <trkpt lat="44.34355" lon="3.60216">
        <ele>563.20338675155</ele>
        <time>2021-03-31T10:09:37.731Z</time>
      </trkpt>
      <trkpt lat="44.34367" lon="3.60207">
        <ele>561.82430641147</ele>
        <time>2021-03-31T10:09:45.257Z</time>
      </trkpt>
      <trkpt lat="44.3437" lon="3.60196">
        <ele>560.51051219445</ele>
        <time>2021-03-31T10:09:52.785Z</time>
      </trkpt>
      <trkpt lat="44.34376" lon="3.60167">
        <ele>559.22728090308</ele>
        <time>2021-03-31T10:10:00.320Z</time>
      </trkpt>
      <trkpt lat="44.34388" lon="3.60144">
        <ele>557.90218227907</ele>
        <time>2021-03-31T10:10:07.862Z</time>
      </trkpt>
      <trkpt lat="44.34419" lon="3.60126">
        <ele>556.38069255839</ele>
        <time>2021-03-31T10:10:15.415Z</time>
      </trkpt>
      <trkpt lat="44.34421" lon="3.60125">
        <ele>555.27936639239</ele>
        <time>2021-03-31T10:10:22.969Z</time>
      </trkpt>
      <trkpt lat="44.34421" lon="3.60125">
        <ele>554.28044776467</ele>
        <time>2021-03-31T10:10:30.523Z</time>
      </trkpt>
      <trkpt lat="44.34467" lon="3.60124">
        <ele>553.22112366499</ele>
        <time>2021-03-31T10:10:38.093Z</time>
      </trkpt>
      <trkpt lat="44.34467" lon="3.60124">
        <ele>552.43796965544</ele>
        <time>2021-03-31T10:10:45.663Z</time>
      </trkpt>
      <trkpt lat="44.34498" lon="3.60118">
        <ele>551.92669643621</ele>
        <time>2021-03-31T10:10:53.243Z</time>
      </trkpt>
      <trkpt lat="44.34498" lon="3.60105">
        <ele>551.37667530428</ele>
        <time>2021-03-31T10:11:00.826Z</time>
      </trkpt>
      <trkpt lat="44.34464" lon="3.59944">
        <ele>550.90409547608</ele>
        <time>2021-03-31T10:11:08.449Z</time>
      </trkpt>
      <trkpt lat="44.3448" lon="3.59766">
        <ele>550.56935660442</ele>
        <time>2021-03-31T10:11:16.115Z</time>
      </trkpt>
      <trkpt lat="44.34464" lon="3.59643">
        <ele>550.31293966348</ele>
        <time>2021-03-31T10:11:23.811Z</time>
      </trkpt>
      <trkpt lat="44.34466" lon="3.59603">
        <ele>550.44571934427</ele>
        <time>2021-03-31T10:11:31.517Z</time>
      </trkpt>
      <trkpt lat="44.34466" lon="3.59603">
        <ele>550.75962576061</ele>
        <time>2021-03-31T10:11:39.223Z</time>
      </trkpt>
      <trkpt lat="44.34485" lon="3.59491">
        <ele>551.29479298846</ele>
        <time>2021-03-31T10:11:46.956Z</time>
      </trkpt>
      <trkpt lat="44.34488" lon="3.5948">
        <ele>551.97977805353</ele>
        <time>2021-03-31T10:11:54.692Z</time>
      </trkpt>
      <trkpt lat="44.34491" lon="3.5947">
        <ele>552.87400699913</ele>
        <time>2021-03-31T10:12:02.431Z</time>
      </trkpt>
      <trkpt lat="44.3451" lon="3.59393">
        <ele>554.20840782118</ele>
        <time>2021-03-31T10:12:10.189Z</time>
      </trkpt>
      <trkpt lat="44.34519" lon="3.59359">
        <ele>555.44076181769</ele>
        <time>2021-03-31T10:12:17.956Z</time>
      </trkpt>
      <trkpt lat="44.34519" lon="3.59359">
        <ele>558.39969069136</ele>
        <time>2021-03-31T10:12:25.723Z</time>
      </trkpt>
      <trkpt lat="44.34519" lon="3.59359">
        <ele>560.10645758343</ele>
        <time>2021-03-31T10:12:33.490Z</time>
      </trkpt>
      <trkpt lat="44.3453" lon="3.59316">
        <ele>561.73542384572</ele>
        <time>2021-03-31T10:12:41.268Z</time>
      </trkpt>
      <trkpt lat="44.34561" lon="3.5923">
        <ele>563.83752693164</ele>
        <time>2021-03-31T10:12:49.068Z</time>
      </trkpt>
      <trkpt lat="44.34572" lon="3.59198">
        <ele>565.93525652944</ele>
        <time>2021-03-31T10:12:56.877Z</time>
      </trkpt>
      <trkpt lat="44.34605" lon="3.5916">
        <ele>568.29173479577</ele>
        <time>2021-03-31T10:13:04.700Z</time>
      </trkpt>
      <trkpt lat="44.34636" lon="3.59139">
        <ele>570.72510570052</ele>
        <time>2021-03-31T10:13:12.535Z</time>
      </trkpt>
      <trkpt lat="44.34656" lon="3.59148">
        <ele>573.19147181218</ele>
        <time>2021-03-31T10:13:20.377Z</time>
      </trkpt>
      <trkpt lat="44.34641" lon="3.59032">
        <ele>575.72809559789</ele>
        <time>2021-03-31T10:13:28.247Z</time>
      </trkpt>
      <trkpt lat="44.34603" lon="3.58988">
        <ele>576.98106022737</ele>
        <time>2021-03-31T10:13:36.133Z</time>
      </trkpt>
      <trkpt lat="44.34594" lon="3.58919">
        <ele>579.93525891415</ele>
        <time>2021-03-31T10:13:44.036Z</time>
      </trkpt>
      <trkpt lat="44.34563" lon="3.58927">
        <ele>580.508809941</ele>
        <time>2021-03-31T10:13:51.950Z</time>
      </trkpt>
      <trkpt lat="44.34543" lon="3.58913">
        <ele>581.80626182357</ele>
        <time>2021-03-31T10:13:59.871Z</time>
      </trkpt>
      <trkpt lat="44.34491" lon="3.58897">
        <ele>582.78070532172</ele>
        <time>2021-03-31T10:14:07.810Z</time>
      </trkpt>
      <trkpt lat="44.34408" lon="3.58886">
        <ele>583.25459201017</ele>
        <time>2021-03-31T10:14:15.777Z</time>
      </trkpt>
      <trkpt lat="44.34375" lon="3.5886">
        <ele>584.4849813948</ele>
        <time>2021-03-31T10:14:23.756Z</time>
      </trkpt>
      <trkpt lat="44.34345" lon="3.58855">
        <ele>584.66024874455</ele>
        <time>2021-03-31T10:14:31.745Z</time>
      </trkpt>
      <trkpt lat="44.34262" lon="3.58894">
        <ele>583.80754180065</ele>
        <time>2021-03-31T10:14:39.763Z</time>
      </trkpt>
      <trkpt lat="44.34203" lon="3.58906">
        <ele>583.62770872247</ele>
        <time>2021-03-31T10:14:47.801Z</time>
      </trkpt>
      <trkpt lat="44.34105" lon="3.58972">
        <ele>583.10427376275</ele>
        <time>2021-03-31T10:14:55.876Z</time>
      </trkpt>
      <trkpt lat="44.34105" lon="3.58972">
        <ele>581.081548706</ele>
        <time>2021-03-31T10:15:03.951Z</time>
      </trkpt>
      <trkpt lat="44.34105" lon="3.58972">
        <ele>579.66410281063</ele>
        <time>2021-03-31T10:15:12.026Z</time>
      </trkpt>
      <trkpt lat="44.34101" lon="3.58974">
        <ele>577.98009760746</ele>
        <time>2021-03-31T10:15:20.102Z</time>
      </trkpt>
      <trkpt lat="44.34058" lon="3.58983">
        <ele>576.04642187279</ele>
        <time>2021-03-31T10:15:28.192Z</time>
      </trkpt>
      <trkpt lat="44.34034" lon="3.58969">
        <ele>573.8546827649</ele>
        <time>2021-03-31T10:15:36.291Z</time>
      </trkpt>
      <trkpt lat="44.34008" lon="3.58947">
        <ele>571.32067290899</ele>
        <time>2021-03-31T10:15:44.400Z</time>
      </trkpt>
      <trkpt lat="44.34008" lon="3.58947">
        <ele>568.89546176318</ele>
        <time>2021-03-31T10:15:52.509Z</time>
      </trkpt>
      <trkpt lat="44.33918" lon="3.58826">
        <ele>565.26050669024</ele>
        <time>2021-03-31T10:16:00.660Z</time>
      </trkpt>
      <trkpt lat="44.33893" lon="3.58807">
        <ele>562.78064766781</ele>
        <time>2021-03-31T10:16:08.820Z</time>
      </trkpt>
      <trkpt lat="44.33847" lon="3.58768">
        <ele>560.20081529245</ele>
        <time>2021-03-31T10:16:16.998Z</time>
      </trkpt>
      <trkpt lat="44.33836" lon="3.58759">
        <ele>557.84136639554</ele>
        <time>2021-03-31T10:16:25.180Z</time>
      </trkpt>
      <trkpt lat="44.33782" lon="3.58714">
        <ele>555.5313971288</ele>
        <time>2021-03-31T10:16:33.384Z</time>
      </trkpt>
      <trkpt lat="44.33728" lon="3.58729">
        <ele>553.24232175579</ele>
        <time>2021-03-31T10:16:41.606Z</time>
      </trkpt>
      <trkpt lat="44.33728" lon="3.58729">
        <ele>551.35634608242</ele>
        <time>2021-03-31T10:16:49.828Z</time>
      </trkpt>
      <trkpt lat="44.33701" lon="3.58737">
        <ele>549.45861580375</ele>
        <time>2021-03-31T10:16:58.059Z</time>
      </trkpt>
      <trkpt lat="44.33665" lon="3.58743">
        <ele>547.90036551838</ele>
        <time>2021-03-31T10:17:06.302Z</time>
      </trkpt>
      <trkpt lat="44.33644" lon="3.58736">
        <ele>546.69282993152</ele>
        <time>2021-03-31T10:17:14.552Z</time>
      </trkpt>
      <trkpt lat="44.33638" lon="3.58731">
        <ele>545.54697522433</ele>
        <time>2021-03-31T10:17:22.805Z</time>
      </trkpt>
      <trkpt lat="44.33637" lon="3.5873">
        <ele>543.68995319123</ele>
        <time>2021-03-31T10:17:31.058Z</time>
      </trkpt>
      <trkpt lat="44.33637" lon="3.5873">
        <ele>543.02109424285</ele>
        <time>2021-03-31T10:17:39.311Z</time>
      </trkpt>
      <trkpt lat="44.33595" lon="3.58698">
        <ele>543.064867755</ele>
        <time>2021-03-31T10:17:47.580Z</time>
      </trkpt>
      <trkpt lat="44.33595" lon="3.58654">
        <ele>542.21963863246</ele>
        <time>2021-03-31T10:17:55.860Z</time>
      </trkpt>
      <trkpt lat="44.33601" lon="3.58633">
        <ele>541.65216096371</ele>
        <time>2021-03-31T10:18:04.145Z</time>
      </trkpt>
      <trkpt lat="44.33605" lon="3.58629">
        <ele>541.52778453139</ele>
        <time>2021-03-31T10:18:12.432Z</time>
      </trkpt>
      <trkpt lat="44.33607" lon="3.58612">
        <ele>541.49925702637</ele>
        <time>2021-03-31T10:18:20.723Z</time>
      </trkpt>
      <trkpt lat="44.33593" lon="3.58602">
        <ele>541.81690355511</ele>
        <time>2021-03-31T10:18:29.019Z</time>
      </trkpt>
      <trkpt lat="44.33586" lon="3.58609">
        <ele>542.24173850978</ele>
        <time>2021-03-31T10:18:37.318Z</time>
      </trkpt>
      <trkpt lat="44.33538" lon="3.58613">
        <ele>542.87853592505</ele>
        <time>2021-03-31T10:18:45.633Z</time>
      </trkpt>
      <trkpt lat="44.33489" lon="3.58617">
        <ele>543.25793927047</ele>
        <time>2021-03-31T10:18:53.964Z</time>
      </trkpt>
      <trkpt lat="44.33431" lon="3.58637">
        <ele>543.6863086089</ele>
        <time>2021-03-31T10:19:02.315Z</time>
      </trkpt>
      <trkpt lat="44.33378" lon="3.58675">
        <ele>543.43638432963</ele>
        <time>2021-03-31T10:19:10.686Z</time>
      </trkpt>
      <trkpt lat="44.3334" lon="3.58719">
        <ele>543.51526876361</ele>
        <time>2021-03-31T10:19:19.073Z</time>
      </trkpt>
      <trkpt lat="44.33283" lon="3.58823">
        <ele>543.77321412789</ele>
        <time>2021-03-31T10:19:27.492Z</time>
      </trkpt>
      <trkpt lat="44.33207" lon="3.59022">
        <ele>543.33062595792</ele>
        <time>2021-03-31T10:19:35.965Z</time>
      </trkpt>
      <trkpt lat="44.33156" lon="3.59116">
        <ele>542.89991890492</ele>
        <time>2021-03-31T10:19:44.466Z</time>
      </trkpt>
      <trkpt lat="44.33149" lon="3.59125">
        <ele>542.68672957484</ele>
        <time>2021-03-31T10:19:52.970Z</time>
      </trkpt>
      <trkpt lat="44.33138" lon="3.59101">
        <ele>542.02050228683</ele>
        <time>2021-03-31T10:20:01.481Z</time>
      </trkpt>
      <trkpt lat="44.33138" lon="3.59098">
        <ele>542.01119051179</ele>
        <time>2021-03-31T10:20:09.993Z</time>
      </trkpt>
      <trkpt lat="44.33116" lon="3.59069">
        <ele>541.87674861022</ele>
        <time>2021-03-31T10:20:18.515Z</time>
      </trkpt>
      <trkpt lat="44.33111" lon="3.59064">
        <ele>542.04253768078</ele>
        <time>2021-03-31T10:20:27.039Z</time>
      </trkpt>
      <trkpt lat="44.331" lon="3.59058">
        <ele>542.3154524461</ele>
        <time>2021-03-31T10:20:35.567Z</time>
      </trkpt>
      <trkpt lat="44.33082" lon="3.59051">
        <ele>542.70446828235</ele>
        <time>2021-03-31T10:20:44.101Z</time>
      </trkpt>
      <trkpt lat="44.33069" lon="3.59051">
        <ele>542.8967325854</ele>
        <time>2021-03-31T10:20:52.639Z</time>
      </trkpt>
      <trkpt lat="44.33055" lon="3.59056">
        <ele>543.09379701594</ele>
        <time>2021-03-31T10:21:01.182Z</time>
      </trkpt>
      <trkpt lat="44.33024" lon="3.59077">
        <ele>543.10978775788</ele>
        <time>2021-03-31T10:21:09.737Z</time>
      </trkpt>
      <trkpt lat="44.32999" lon="3.59097">
        <ele>543.10526670386</ele>
        <time>2021-03-31T10:21:18.301Z</time>
      </trkpt>
      <trkpt lat="44.32949" lon="3.59136">
        <ele>543.15477000905</ele>
        <time>2021-03-31T10:21:26.884Z</time>
      </trkpt>
      <trkpt lat="44.32923" lon="3.59157">
        <ele>543.2499669265</ele>
        <time>2021-03-31T10:21:35.477Z</time>
      </trkpt>
      <trkpt lat="44.32891" lon="3.59172">
        <ele>543.41752063474</ele>
        <time>2021-03-31T10:21:44.082Z</time>
      </trkpt>
      <trkpt lat="44.3289" lon="3.59176">
        <ele>543.52096870528</ele>
        <time>2021-03-31T10:21:52.688Z</time>
      </trkpt>
      <trkpt lat="44.32888" lon="3.59181">
        <ele>543.63841958494</ele>
        <time>2021-03-31T10:22:01.295Z</time>
      </trkpt>
      <trkpt lat="44.32884" lon="3.59183">
        <ele>543.77229882</ele>
        <time>2021-03-31T10:22:09.903Z</time>
      </trkpt>
      <trkpt lat="44.32878" lon="3.59182">
        <ele>543.90918482103</ele>
        <time>2021-03-31T10:22:18.513Z</time>
      </trkpt>
      <trkpt lat="44.32867" lon="3.59198">
        <ele>544.06986666531</ele>
        <time>2021-03-31T10:22:27.129Z</time>
      </trkpt>
      <trkpt lat="44.32828" lon="3.59231">
        <ele>544.20364089111</ele>
        <time>2021-03-31T10:22:35.760Z</time>
      </trkpt>
      <trkpt lat="44.32795" lon="3.59258">
        <ele>544.61329972183</ele>
        <time>2021-03-31T10:22:44.404Z</time>
      </trkpt>
      <trkpt lat="44.32699" lon="3.59332">
        <ele>544.73055055986</ele>
        <time>2021-03-31T10:22:53.084Z</time>
      </trkpt>
      <trkpt lat="44.32668" lon="3.59357">
        <ele>545.03899094019</ele>
        <time>2021-03-31T10:23:01.776Z</time>
      </trkpt>
      <trkpt lat="44.32617" lon="3.59394">
        <ele>545.14378835855</ele>
        <time>2021-03-31T10:23:10.487Z</time>
      </trkpt>
      <trkpt lat="44.32576" lon="3.59426">
        <ele>545.0776705292</ele>
        <time>2021-03-31T10:23:19.214Z</time>
      </trkpt>
      <trkpt lat="44.32568" lon="3.59429">
        <ele>545.21569442947</ele>
        <time>2021-03-31T10:23:27.944Z</time>
      </trkpt>
      <trkpt lat="44.32567" lon="3.59425">
        <ele>545.30170079008</ele>
        <time>2021-03-31T10:23:36.675Z</time>
      </trkpt>
    </trkseg>
  </trk>
</gpx>